<?xml version="1.0" encoding="UTF-8" standalone="no" ?>
<gpx xmlns="http://www.topografix.com/GPX/1/1" xmlns:xsi="http://www.w3.org/2001/XMLSchema-instance" xsi:schemaLocation="http://www.topografix.com/GPX/1/1 http://www.topografix.com/GPX/1/1/gpx.xsd" version="1.1" creator="VisuGPX - https://www.visugpx.com">
  <metadata>
    <name>Circuit du 28 Mai 2012</name>
    <desc><![CDATA[Un tour dans le Massif des Maures.]]></desc>
  </metadata>
  <trk>
    <name><![CDATA[ACTIVE LOG: 28 MAI 2012 09:33]]></name>
    <trkseg>
      <trkpt lat="43.39784" lon="6.7295">
        <ele>1.58</ele>
        <time>2012-05-28T07:34:50Z</time>
      </trkpt>
      <trkpt lat="43.39784" lon="6.7295">
        <ele>1.58</ele>
        <time>2012-05-28T07:34:51Z</time>
      </trkpt>
      <trkpt lat="43.39812" lon="6.7296">
        <ele>2.06</ele>
        <time>2012-05-28T07:35:07Z</time>
      </trkpt>
      <trkpt lat="43.39831" lon="6.72967">
        <ele>1.58</ele>
        <time>2012-05-28T07:35:14Z</time>
      </trkpt>
      <trkpt lat="43.39834" lon="6.72957">
        <ele>1.58</ele>
        <time>2012-05-28T07:35:24Z</time>
      </trkpt>
      <trkpt lat="43.39843" lon="6.72947">
        <ele>1.58</ele>
        <time>2012-05-28T07:35:30Z</time>
      </trkpt>
      <trkpt lat="43.39907" lon="6.72968">
        <ele>1.58</ele>
        <time>2012-05-28T07:35:48Z</time>
      </trkpt>
      <trkpt lat="43.39928" lon="6.72973">
        <ele>1.58</ele>
        <time>2012-05-28T07:35:53Z</time>
      </trkpt>
      <trkpt lat="43.39987" lon="6.72983">
        <ele>2.06</ele>
        <time>2012-05-28T07:36:07Z</time>
      </trkpt>
      <trkpt lat="43.40102" lon="6.7299">
        <ele>2.06</ele>
        <time>2012-05-28T07:36:29Z</time>
      </trkpt>
      <trkpt lat="43.40244" lon="6.72989">
        <ele>2.06</ele>
        <time>2012-05-28T07:36:56Z</time>
      </trkpt>
      <trkpt lat="43.40313" lon="6.72968">
        <ele>1.58</ele>
        <time>2012-05-28T07:37:09Z</time>
      </trkpt>
      <trkpt lat="43.40425" lon="6.729">
        <ele>2.06</ele>
        <time>2012-05-28T07:37:31Z</time>
      </trkpt>
      <trkpt lat="43.40523" lon="6.72802">
        <ele>2.06</ele>
        <time>2012-05-28T07:37:53Z</time>
      </trkpt>
      <trkpt lat="43.40611" lon="6.72712">
        <ele>2.06</ele>
        <time>2012-05-28T07:38:13Z</time>
      </trkpt>
      <trkpt lat="43.40691" lon="6.72632">
        <ele>2.54</ele>
        <time>2012-05-28T07:38:31Z</time>
      </trkpt>
      <trkpt lat="43.40824" lon="6.725">
        <ele>2.06</ele>
        <time>2012-05-28T07:39:01Z</time>
      </trkpt>
      <trkpt lat="43.40857" lon="6.72467">
        <ele>2.54</ele>
        <time>2012-05-28T07:39:09Z</time>
      </trkpt>
      <trkpt lat="43.40901" lon="6.72427">
        <ele>2.06</ele>
        <time>2012-05-28T07:39:22Z</time>
      </trkpt>
      <trkpt lat="43.40905" lon="6.72422">
        <ele>2.06</ele>
        <time>2012-05-28T07:39:26Z</time>
      </trkpt>
      <trkpt lat="43.40908" lon="6.72413">
        <ele>2.06</ele>
        <time>2012-05-28T07:39:30Z</time>
      </trkpt>
      <trkpt lat="43.4091" lon="6.72389">
        <ele>1.1</ele>
        <time>2012-05-28T07:39:34Z</time>
      </trkpt>
      <trkpt lat="43.40905" lon="6.72368">
        <ele>0.62</ele>
        <time>2012-05-28T07:39:38Z</time>
      </trkpt>
      <trkpt lat="43.40899" lon="6.7236">
        <ele>0.62</ele>
        <time>2012-05-28T07:39:40Z</time>
      </trkpt>
      <trkpt lat="43.40884" lon="6.72348">
        <ele>0.62</ele>
        <time>2012-05-28T07:39:44Z</time>
      </trkpt>
      <trkpt lat="43.40829" lon="6.72337">
        <ele>1.1</ele>
        <time>2012-05-28T07:39:59Z</time>
      </trkpt>
      <trkpt lat="43.40749" lon="6.72303">
        <ele>0.62</ele>
        <time>2012-05-28T07:40:17Z</time>
      </trkpt>
      <trkpt lat="43.40732" lon="6.72258">
        <ele>0.62</ele>
        <time>2012-05-28T07:40:25Z</time>
      </trkpt>
      <trkpt lat="43.40737" lon="6.72245">
        <ele>0.62</ele>
        <time>2012-05-28T07:40:27Z</time>
      </trkpt>
      <trkpt lat="43.40758" lon="6.72206">
        <ele>1.1</ele>
        <time>2012-05-28T07:40:34Z</time>
      </trkpt>
      <trkpt lat="43.40786" lon="6.72141">
        <ele>1.1</ele>
        <time>2012-05-28T07:40:48Z</time>
      </trkpt>
      <trkpt lat="43.40791" lon="6.72121">
        <ele>0.62</ele>
        <time>2012-05-28T07:40:52Z</time>
      </trkpt>
      <trkpt lat="43.40791" lon="6.72071">
        <ele>0.62</ele>
        <time>2012-05-28T07:41:00Z</time>
      </trkpt>
      <trkpt lat="43.40815" lon="6.7196">
        <ele>0.14</ele>
        <time>2012-05-28T07:41:18Z</time>
      </trkpt>
      <trkpt lat="43.40846" lon="6.71873">
        <ele>0.14</ele>
        <time>2012-05-28T07:41:33Z</time>
      </trkpt>
      <trkpt lat="43.40877" lon="6.71818">
        <ele>0.14</ele>
        <time>2012-05-28T07:41:43Z</time>
      </trkpt>
      <trkpt lat="43.4089" lon="6.71798">
        <ele>0.14</ele>
        <time>2012-05-28T07:41:47Z</time>
      </trkpt>
      <trkpt lat="43.40907" lon="6.71722">
        <ele>0.14</ele>
        <time>2012-05-28T07:41:59Z</time>
      </trkpt>
      <trkpt lat="43.40917" lon="6.71683">
        <ele>0.14</ele>
        <time>2012-05-28T07:42:05Z</time>
      </trkpt>
      <trkpt lat="43.40935" lon="6.71586">
        <ele>0.62</ele>
        <time>2012-05-28T07:42:20Z</time>
      </trkpt>
      <trkpt lat="43.40945" lon="6.71528">
        <ele>0.14</ele>
        <time>2012-05-28T07:42:32Z</time>
      </trkpt>
      <trkpt lat="43.40951" lon="6.71478">
        <ele>0.62</ele>
        <time>2012-05-28T07:42:45Z</time>
      </trkpt>
      <trkpt lat="43.40956" lon="6.71473">
        <ele>0.14</ele>
        <time>2012-05-28T07:43:00Z</time>
      </trkpt>
      <trkpt lat="43.40957" lon="6.71473">
        <ele>0.14</ele>
        <time>2012-05-28T07:43:02Z</time>
      </trkpt>
      <trkpt lat="43.40948" lon="6.71483">
        <ele>0.62</ele>
        <time>2012-05-28T07:43:11Z</time>
      </trkpt>
      <trkpt lat="43.40945" lon="6.71491">
        <ele>0.62</ele>
        <time>2012-05-28T07:43:14Z</time>
      </trkpt>
      <trkpt lat="43.40936" lon="6.71491">
        <ele>1.1</ele>
        <time>2012-05-28T07:43:24Z</time>
      </trkpt>
      <trkpt lat="43.40947" lon="6.7149">
        <ele>0.62</ele>
        <time>2012-05-28T07:43:30Z</time>
      </trkpt>
      <trkpt lat="43.40952" lon="6.71477">
        <ele>0.62</ele>
        <time>2012-05-28T07:43:44Z</time>
      </trkpt>
      <trkpt lat="43.40951" lon="6.71474">
        <ele>1.1</ele>
        <time>2012-05-28T07:43:58Z</time>
      </trkpt>
      <trkpt lat="43.40953" lon="6.71474">
        <ele>0.62</ele>
        <time>2012-05-28T07:44:13Z</time>
      </trkpt>
      <trkpt lat="43.40944" lon="6.71493">
        <ele>0.62</ele>
        <time>2012-05-28T07:44:26Z</time>
      </trkpt>
      <trkpt lat="43.4094" lon="6.71494">
        <ele>0.62</ele>
        <time>2012-05-28T07:44:30Z</time>
      </trkpt>
      <trkpt lat="43.4093" lon="6.71478">
        <ele>1.1</ele>
        <time>2012-05-28T07:44:51Z</time>
      </trkpt>
      <trkpt lat="43.4093" lon="6.71478">
        <ele>1.1</ele>
        <time>2012-05-28T07:45:11Z</time>
      </trkpt>
      <trkpt lat="43.40932" lon="6.7148">
        <ele>1.1</ele>
        <time>2012-05-28T07:45:17Z</time>
      </trkpt>
      <trkpt lat="43.40942" lon="6.71491">
        <ele>1.1</ele>
        <time>2012-05-28T07:45:28Z</time>
      </trkpt>
      <trkpt lat="43.40943" lon="6.71493">
        <ele>1.1</ele>
        <time>2012-05-28T07:45:29Z</time>
      </trkpt>
      <trkpt lat="43.40949" lon="6.71491">
        <ele>1.1</ele>
        <time>2012-05-28T07:45:33Z</time>
      </trkpt>
      <trkpt lat="43.40949" lon="6.71486">
        <ele>1.1</ele>
        <time>2012-05-28T07:45:35Z</time>
      </trkpt>
      <trkpt lat="43.4095" lon="6.71477">
        <ele>1.1</ele>
        <time>2012-05-28T07:45:50Z</time>
      </trkpt>
      <trkpt lat="43.40951" lon="6.71475">
        <ele>1.1</ele>
        <time>2012-05-28T07:46:22Z</time>
      </trkpt>
      <trkpt lat="43.40951" lon="6.71475">
        <ele>1.1</ele>
        <time>2012-05-28T07:46:53Z</time>
      </trkpt>
      <trkpt lat="43.40952" lon="6.71474">
        <ele>1.1</ele>
        <time>2012-05-28T07:46:56Z</time>
      </trkpt>
      <trkpt lat="43.4099" lon="6.71461">
        <ele>1.1</ele>
        <time>2012-05-28T07:47:09Z</time>
      </trkpt>
      <trkpt lat="43.41048" lon="6.714">
        <ele>1.58</ele>
        <time>2012-05-28T07:47:26Z</time>
      </trkpt>
      <trkpt lat="43.41059" lon="6.71388">
        <ele>1.58</ele>
        <time>2012-05-28T07:47:29Z</time>
      </trkpt>
      <trkpt lat="43.41075" lon="6.7136">
        <ele>1.1</ele>
        <time>2012-05-28T07:47:34Z</time>
      </trkpt>
      <trkpt lat="43.41088" lon="6.71331">
        <ele>1.1</ele>
        <time>2012-05-28T07:47:39Z</time>
      </trkpt>
      <trkpt lat="43.4113" lon="6.7128">
        <ele>1.1</ele>
        <time>2012-05-28T07:47:54Z</time>
      </trkpt>
      <trkpt lat="43.41134" lon="6.71278">
        <ele>1.1</ele>
        <time>2012-05-28T07:47:55Z</time>
      </trkpt>
      <trkpt lat="43.41142" lon="6.71276">
        <ele>1.58</ele>
        <time>2012-05-28T07:47:57Z</time>
      </trkpt>
      <trkpt lat="43.4116" lon="6.71263">
        <ele>1.1</ele>
        <time>2012-05-28T07:48:02Z</time>
      </trkpt>
      <trkpt lat="43.41213" lon="6.71207">
        <ele>1.1</ele>
        <time>2012-05-28T07:48:17Z</time>
      </trkpt>
      <trkpt lat="43.41231" lon="6.71182">
        <ele>1.1</ele>
        <time>2012-05-28T07:48:23Z</time>
      </trkpt>
      <trkpt lat="43.4126" lon="6.71106">
        <ele>1.1</ele>
        <time>2012-05-28T07:48:38Z</time>
      </trkpt>
      <trkpt lat="43.41287" lon="6.71051">
        <ele>1.1</ele>
        <time>2012-05-28T07:48:52Z</time>
      </trkpt>
      <trkpt lat="43.41329" lon="6.70994">
        <ele>1.58</ele>
        <time>2012-05-28T07:49:07Z</time>
      </trkpt>
      <trkpt lat="43.41364" lon="6.70941">
        <ele>1.58</ele>
        <time>2012-05-28T07:49:19Z</time>
      </trkpt>
      <trkpt lat="43.41373" lon="6.70926">
        <ele>1.58</ele>
        <time>2012-05-28T07:49:22Z</time>
      </trkpt>
      <trkpt lat="43.41405" lon="6.70883">
        <ele>1.1</ele>
        <time>2012-05-28T07:49:32Z</time>
      </trkpt>
      <trkpt lat="43.41428" lon="6.70822">
        <ele>1.58</ele>
        <time>2012-05-28T07:49:43Z</time>
      </trkpt>
      <trkpt lat="43.4143" lon="6.70797">
        <ele>1.58</ele>
        <time>2012-05-28T07:49:47Z</time>
      </trkpt>
      <trkpt lat="43.41431" lon="6.70779">
        <ele>1.58</ele>
        <time>2012-05-28T07:49:50Z</time>
      </trkpt>
      <trkpt lat="43.41434" lon="6.70759">
        <ele>2.06</ele>
        <time>2012-05-28T07:49:54Z</time>
      </trkpt>
      <trkpt lat="43.41453" lon="6.70703">
        <ele>2.06</ele>
        <time>2012-05-28T07:50:09Z</time>
      </trkpt>
      <trkpt lat="43.41473" lon="6.70668">
        <ele>2.54</ele>
        <time>2012-05-28T07:50:21Z</time>
      </trkpt>
      <trkpt lat="43.41499" lon="6.70619">
        <ele>2.54</ele>
        <time>2012-05-28T07:50:32Z</time>
      </trkpt>
      <trkpt lat="43.41504" lon="6.70609">
        <ele>2.54</ele>
        <time>2012-05-28T07:50:34Z</time>
      </trkpt>
      <trkpt lat="43.41527" lon="6.70576">
        <ele>2.54</ele>
        <time>2012-05-28T07:50:42Z</time>
      </trkpt>
      <trkpt lat="43.41568" lon="6.70538">
        <ele>3.02</ele>
        <time>2012-05-28T07:50:54Z</time>
      </trkpt>
      <trkpt lat="43.41597" lon="6.70527">
        <ele>3.02</ele>
        <time>2012-05-28T07:51:01Z</time>
      </trkpt>
      <trkpt lat="43.4162" lon="6.70512">
        <ele>3.02</ele>
        <time>2012-05-28T07:51:07Z</time>
      </trkpt>
      <trkpt lat="43.41628" lon="6.70506">
        <ele>3.02</ele>
        <time>2012-05-28T07:51:09Z</time>
      </trkpt>
      <trkpt lat="43.4166" lon="6.70434">
        <ele>3.5</ele>
        <time>2012-05-28T07:51:23Z</time>
      </trkpt>
      <trkpt lat="43.41683" lon="6.70369">
        <ele>3.5</ele>
        <time>2012-05-28T07:51:38Z</time>
      </trkpt>
      <trkpt lat="43.41683" lon="6.70365">
        <ele>3.02</ele>
        <time>2012-05-28T07:51:48Z</time>
      </trkpt>
      <trkpt lat="43.41676" lon="6.70352">
        <ele>3.02</ele>
        <time>2012-05-28T07:51:52Z</time>
      </trkpt>
      <trkpt lat="43.41626" lon="6.70291">
        <ele>3.02</ele>
        <time>2012-05-28T07:52:07Z</time>
      </trkpt>
      <trkpt lat="43.41525" lon="6.7017">
        <ele>3.02</ele>
        <time>2012-05-28T07:52:31Z</time>
      </trkpt>
      <trkpt lat="43.41494" lon="6.70139">
        <ele>3.02</ele>
        <time>2012-05-28T07:52:38Z</time>
      </trkpt>
      <trkpt lat="43.41469" lon="6.70131">
        <ele>3.5</ele>
        <time>2012-05-28T07:52:43Z</time>
      </trkpt>
      <trkpt lat="43.41384" lon="6.70132">
        <ele>3.5</ele>
        <time>2012-05-28T07:52:58Z</time>
      </trkpt>
      <trkpt lat="43.41338" lon="6.70119">
        <ele>4.46</ele>
        <time>2012-05-28T07:53:12Z</time>
      </trkpt>
      <trkpt lat="43.41316" lon="6.70099">
        <ele>5.42</ele>
        <time>2012-05-28T07:53:28Z</time>
      </trkpt>
      <trkpt lat="43.41304" lon="6.70055">
        <ele>5.42</ele>
        <time>2012-05-28T07:53:42Z</time>
      </trkpt>
      <trkpt lat="43.41307" lon="6.70053">
        <ele>5.42</ele>
        <time>2012-05-28T07:53:56Z</time>
      </trkpt>
      <trkpt lat="43.41306" lon="6.70053">
        <ele>5.42</ele>
        <time>2012-05-28T07:54:13Z</time>
      </trkpt>
      <trkpt lat="43.41306" lon="6.70049">
        <ele>5.42</ele>
        <time>2012-05-28T07:54:36Z</time>
      </trkpt>
      <trkpt lat="43.41305" lon="6.70048">
        <ele>5.91</ele>
        <time>2012-05-28T07:54:55Z</time>
      </trkpt>
      <trkpt lat="43.41305" lon="6.7005">
        <ele>5.91</ele>
        <time>2012-05-28T07:55:16Z</time>
      </trkpt>
      <trkpt lat="43.41304" lon="6.70051">
        <ele>5.42</ele>
        <time>2012-05-28T07:55:29Z</time>
      </trkpt>
      <trkpt lat="43.41304" lon="6.7005">
        <ele>5.42</ele>
        <time>2012-05-28T07:55:50Z</time>
      </trkpt>
      <trkpt lat="43.41302" lon="6.70053">
        <ele>5.91</ele>
        <time>2012-05-28T07:56:01Z</time>
      </trkpt>
      <trkpt lat="43.41303" lon="6.70053">
        <ele>5.91</ele>
        <time>2012-05-28T07:56:19Z</time>
      </trkpt>
      <trkpt lat="43.413" lon="6.70046">
        <ele>5.91</ele>
        <time>2012-05-28T07:56:24Z</time>
      </trkpt>
      <trkpt lat="43.41299" lon="6.70041">
        <ele>5.91</ele>
        <time>2012-05-28T07:56:27Z</time>
      </trkpt>
      <trkpt lat="43.41289" lon="6.69999">
        <ele>6.39</ele>
        <time>2012-05-28T07:56:44Z</time>
      </trkpt>
      <trkpt lat="43.41269" lon="6.69905">
        <ele>5.91</ele>
        <time>2012-05-28T07:57:07Z</time>
      </trkpt>
      <trkpt lat="43.41232" lon="6.69761">
        <ele>5.91</ele>
        <time>2012-05-28T07:57:34Z</time>
      </trkpt>
      <trkpt lat="43.41227" lon="6.69742">
        <ele>6.39</ele>
        <time>2012-05-28T07:57:38Z</time>
      </trkpt>
      <trkpt lat="43.41222" lon="6.69721">
        <ele>6.87</ele>
        <time>2012-05-28T07:57:42Z</time>
      </trkpt>
      <trkpt lat="43.41204" lon="6.69697">
        <ele>5.91</ele>
        <time>2012-05-28T07:57:49Z</time>
      </trkpt>
      <trkpt lat="43.41129" lon="6.69676">
        <ele>5.91</ele>
        <time>2012-05-28T07:58:08Z</time>
      </trkpt>
      <trkpt lat="43.41049" lon="6.6965">
        <ele>5.91</ele>
        <time>2012-05-28T07:58:28Z</time>
      </trkpt>
      <trkpt lat="43.41013" lon="6.69641">
        <ele>5.91</ele>
        <time>2012-05-28T07:58:36Z</time>
      </trkpt>
      <trkpt lat="43.40899" lon="6.69605">
        <ele>6.39</ele>
        <time>2012-05-28T07:59:00Z</time>
      </trkpt>
      <trkpt lat="43.40796" lon="6.69573">
        <ele>6.87</ele>
        <time>2012-05-28T07:59:24Z</time>
      </trkpt>
      <trkpt lat="43.40698" lon="6.69541">
        <ele>6.87</ele>
        <time>2012-05-28T07:59:46Z</time>
      </trkpt>
      <trkpt lat="43.40609" lon="6.69512">
        <ele>7.83</ele>
        <time>2012-05-28T08:00:05Z</time>
      </trkpt>
      <trkpt lat="43.40529" lon="6.69487">
        <ele>9.75</ele>
        <time>2012-05-28T08:00:24Z</time>
      </trkpt>
      <trkpt lat="43.40511" lon="6.69483">
        <ele>9.75</ele>
        <time>2012-05-28T08:00:28Z</time>
      </trkpt>
      <trkpt lat="43.40454" lon="6.69449">
        <ele>10.23</ele>
        <time>2012-05-28T08:00:44Z</time>
      </trkpt>
      <trkpt lat="43.40451" lon="6.69387">
        <ele>9.75</ele>
        <time>2012-05-28T08:00:56Z</time>
      </trkpt>
      <trkpt lat="43.40472" lon="6.69315">
        <ele>7.83</ele>
        <time>2012-05-28T08:01:12Z</time>
      </trkpt>
      <trkpt lat="43.40473" lon="6.69297">
        <ele>7.83</ele>
        <time>2012-05-28T08:01:20Z</time>
      </trkpt>
      <trkpt lat="43.40484" lon="6.693">
        <ele>7.83</ele>
        <time>2012-05-28T08:01:26Z</time>
      </trkpt>
      <trkpt lat="43.40489" lon="6.69306">
        <ele>7.35</ele>
        <time>2012-05-28T08:01:29Z</time>
      </trkpt>
      <trkpt lat="43.40491" lon="6.69288">
        <ele>7.35</ele>
        <time>2012-05-28T08:01:38Z</time>
      </trkpt>
      <trkpt lat="43.40484" lon="6.6929">
        <ele>7.35</ele>
        <time>2012-05-28T08:01:42Z</time>
      </trkpt>
      <trkpt lat="43.4048" lon="6.69297">
        <ele>7.83</ele>
        <time>2012-05-28T08:01:57Z</time>
      </trkpt>
      <trkpt lat="43.40477" lon="6.69298">
        <ele>8.31</ele>
        <time>2012-05-28T08:02:26Z</time>
      </trkpt>
      <trkpt lat="43.40478" lon="6.69299">
        <ele>8.31</ele>
        <time>2012-05-28T08:02:42Z</time>
      </trkpt>
      <trkpt lat="43.40478" lon="6.69299">
        <ele>8.31</ele>
        <time>2012-05-28T08:02:46Z</time>
      </trkpt>
      <trkpt lat="43.40478" lon="6.69299">
        <ele>8.31</ele>
        <time>2012-05-28T08:02:48Z</time>
      </trkpt>
      <trkpt lat="43.40463" lon="6.69322">
        <ele>8.79</ele>
        <time>2012-05-28T08:02:59Z</time>
      </trkpt>
      <trkpt lat="43.40454" lon="6.69369">
        <ele>9.75</ele>
        <time>2012-05-28T08:03:15Z</time>
      </trkpt>
      <trkpt lat="43.40447" lon="6.6942">
        <ele>10.71</ele>
        <time>2012-05-28T08:03:31Z</time>
      </trkpt>
      <trkpt lat="43.40461" lon="6.6946">
        <ele>11.19</ele>
        <time>2012-05-28T08:03:48Z</time>
      </trkpt>
      <trkpt lat="43.40461" lon="6.69462">
        <ele>11.19</ele>
        <time>2012-05-28T08:03:49Z</time>
      </trkpt>
      <trkpt lat="43.40466" lon="6.69465">
        <ele>11.19</ele>
        <time>2012-05-28T08:03:53Z</time>
      </trkpt>
      <trkpt lat="43.40463" lon="6.69461">
        <ele>11.19</ele>
        <time>2012-05-28T08:04:01Z</time>
      </trkpt>
      <trkpt lat="43.40462" lon="6.69464">
        <ele>11.19</ele>
        <time>2012-05-28T08:04:02Z</time>
      </trkpt>
      <trkpt lat="43.40453" lon="6.69507">
        <ele>13.12</ele>
        <time>2012-05-28T08:04:19Z</time>
      </trkpt>
      <trkpt lat="43.4044" lon="6.6953">
        <ele>16</ele>
        <time>2012-05-28T08:04:33Z</time>
      </trkpt>
      <trkpt lat="43.40434" lon="6.69551">
        <ele>18.4</ele>
        <time>2012-05-28T08:04:47Z</time>
      </trkpt>
      <trkpt lat="43.40433" lon="6.69565">
        <ele>21.77</ele>
        <time>2012-05-28T08:05:00Z</time>
      </trkpt>
      <trkpt lat="43.40432" lon="6.6958">
        <ele>24.65</ele>
        <time>2012-05-28T08:05:15Z</time>
      </trkpt>
      <trkpt lat="43.40428" lon="6.69595">
        <ele>28.02</ele>
        <time>2012-05-28T08:05:29Z</time>
      </trkpt>
      <trkpt lat="43.40421" lon="6.69611">
        <ele>30.9</ele>
        <time>2012-05-28T08:05:43Z</time>
      </trkpt>
      <trkpt lat="43.40414" lon="6.69626">
        <ele>32.82</ele>
        <time>2012-05-28T08:06:00Z</time>
      </trkpt>
      <trkpt lat="43.40401" lon="6.69654">
        <ele>35.71</ele>
        <time>2012-05-28T08:06:19Z</time>
      </trkpt>
      <trkpt lat="43.40385" lon="6.69687">
        <ele>38.11</ele>
        <time>2012-05-28T08:06:38Z</time>
      </trkpt>
      <trkpt lat="43.40382" lon="6.69722">
        <ele>40.99</ele>
        <time>2012-05-28T08:06:57Z</time>
      </trkpt>
      <trkpt lat="43.40381" lon="6.69754">
        <ele>43.88</ele>
        <time>2012-05-28T08:07:15Z</time>
      </trkpt>
      <trkpt lat="43.4038" lon="6.69773">
        <ele>47.24</ele>
        <time>2012-05-28T08:07:26Z</time>
      </trkpt>
      <trkpt lat="43.40379" lon="6.69776">
        <ele>47.72</ele>
        <time>2012-05-28T08:07:28Z</time>
      </trkpt>
      <trkpt lat="43.40378" lon="6.6978">
        <ele>48.68</ele>
        <time>2012-05-28T08:07:31Z</time>
      </trkpt>
      <trkpt lat="43.40375" lon="6.6979">
        <ele>50.61</ele>
        <time>2012-05-28T08:07:38Z</time>
      </trkpt>
      <trkpt lat="43.40372" lon="6.69799">
        <ele>52.05</ele>
        <time>2012-05-28T08:07:45Z</time>
      </trkpt>
      <trkpt lat="43.40371" lon="6.69806">
        <ele>53.49</ele>
        <time>2012-05-28T08:07:55Z</time>
      </trkpt>
      <trkpt lat="43.40367" lon="6.69827">
        <ele>56.37</ele>
        <time>2012-05-28T08:08:14Z</time>
      </trkpt>
      <trkpt lat="43.40366" lon="6.6984">
        <ele>59.74</ele>
        <time>2012-05-28T08:08:29Z</time>
      </trkpt>
      <trkpt lat="43.40363" lon="6.69856">
        <ele>62.62</ele>
        <time>2012-05-28T08:08:46Z</time>
      </trkpt>
      <trkpt lat="43.4036" lon="6.69877">
        <ele>65.99</ele>
        <time>2012-05-28T08:09:04Z</time>
      </trkpt>
      <trkpt lat="43.40358" lon="6.69891">
        <ele>68.87</ele>
        <time>2012-05-28T08:09:19Z</time>
      </trkpt>
      <trkpt lat="43.40354" lon="6.69908">
        <ele>72.24</ele>
        <time>2012-05-28T08:09:36Z</time>
      </trkpt>
      <trkpt lat="43.40355" lon="6.69915">
        <ele>73.68</ele>
        <time>2012-05-28T08:09:42Z</time>
      </trkpt>
      <trkpt lat="43.40351" lon="6.69936">
        <ele>77.04</ele>
        <time>2012-05-28T08:10:00Z</time>
      </trkpt>
      <trkpt lat="43.40345" lon="6.69959">
        <ele>79.93</ele>
        <time>2012-05-28T08:10:18Z</time>
      </trkpt>
      <trkpt lat="43.40333" lon="6.69983">
        <ele>81.85</ele>
        <time>2012-05-28T08:10:41Z</time>
      </trkpt>
      <trkpt lat="43.40333" lon="6.69987">
        <ele>82.33</ele>
        <time>2012-05-28T08:10:55Z</time>
      </trkpt>
      <trkpt lat="43.40331" lon="6.6998">
        <ele>82.33</ele>
        <time>2012-05-28T08:11:09Z</time>
      </trkpt>
      <trkpt lat="43.40331" lon="6.69981">
        <ele>82.33</ele>
        <time>2012-05-28T08:11:23Z</time>
      </trkpt>
      <trkpt lat="43.40328" lon="6.69991">
        <ele>82.81</ele>
        <time>2012-05-28T08:11:32Z</time>
      </trkpt>
      <trkpt lat="43.40326" lon="6.69998">
        <ele>82.81</ele>
        <time>2012-05-28T08:11:45Z</time>
      </trkpt>
      <trkpt lat="43.40324" lon="6.70001">
        <ele>82.81</ele>
        <time>2012-05-28T08:11:48Z</time>
      </trkpt>
      <trkpt lat="43.40324" lon="6.70007">
        <ele>82.81</ele>
        <time>2012-05-28T08:11:53Z</time>
      </trkpt>
      <trkpt lat="43.40325" lon="6.70009">
        <ele>82.81</ele>
        <time>2012-05-28T08:11:56Z</time>
      </trkpt>
      <trkpt lat="43.40328" lon="6.70006">
        <ele>82.81</ele>
        <time>2012-05-28T08:12:00Z</time>
      </trkpt>
      <trkpt lat="43.40328" lon="6.7">
        <ele>82.81</ele>
        <time>2012-05-28T08:12:03Z</time>
      </trkpt>
      <trkpt lat="43.40324" lon="6.69999">
        <ele>82.81</ele>
        <time>2012-05-28T08:12:07Z</time>
      </trkpt>
      <trkpt lat="43.40323" lon="6.70002">
        <ele>82.81</ele>
        <time>2012-05-28T08:12:10Z</time>
      </trkpt>
      <trkpt lat="43.40324" lon="6.70005">
        <ele>82.81</ele>
        <time>2012-05-28T08:12:12Z</time>
      </trkpt>
      <trkpt lat="43.40326" lon="6.69997">
        <ele>82.81</ele>
        <time>2012-05-28T08:12:21Z</time>
      </trkpt>
      <trkpt lat="43.40324" lon="6.7">
        <ele>82.81</ele>
        <time>2012-05-28T08:12:24Z</time>
      </trkpt>
      <trkpt lat="43.40323" lon="6.70013">
        <ele>82.81</ele>
        <time>2012-05-28T08:12:41Z</time>
      </trkpt>
      <trkpt lat="43.40324" lon="6.70011">
        <ele>82.81</ele>
        <time>2012-05-28T08:12:59Z</time>
      </trkpt>
      <trkpt lat="43.40325" lon="6.70013">
        <ele>83.29</ele>
        <time>2012-05-28T08:14:09Z</time>
      </trkpt>
      <trkpt lat="43.40324" lon="6.70016">
        <ele>83.29</ele>
        <time>2012-05-28T08:14:12Z</time>
      </trkpt>
      <trkpt lat="43.40314" lon="6.70022">
        <ele>82.81</ele>
        <time>2012-05-28T08:14:19Z</time>
      </trkpt>
      <trkpt lat="43.40289" lon="6.69994">
        <ele>81.85</ele>
        <time>2012-05-28T08:14:36Z</time>
      </trkpt>
      <trkpt lat="43.40244" lon="6.6995">
        <ele>78</ele>
        <time>2012-05-28T08:14:53Z</time>
      </trkpt>
      <trkpt lat="43.40223" lon="6.69947">
        <ele>75.12</ele>
        <time>2012-05-28T08:14:58Z</time>
      </trkpt>
      <trkpt lat="43.40218" lon="6.69949">
        <ele>74.16</ele>
        <time>2012-05-28T08:14:59Z</time>
      </trkpt>
      <trkpt lat="43.40191" lon="6.69974">
        <ele>70.79</ele>
        <time>2012-05-28T08:15:03Z</time>
      </trkpt>
      <trkpt lat="43.4017" lon="6.69995">
        <ele>67.43</ele>
        <time>2012-05-28T08:15:07Z</time>
      </trkpt>
      <trkpt lat="43.40139" lon="6.70029">
        <ele>64.55</ele>
        <time>2012-05-28T08:15:12Z</time>
      </trkpt>
      <trkpt lat="43.40116" lon="6.70057">
        <ele>65.99</ele>
        <time>2012-05-28T08:15:20Z</time>
      </trkpt>
      <trkpt lat="43.401" lon="6.70089">
        <ele>68.87</ele>
        <time>2012-05-28T08:15:36Z</time>
      </trkpt>
      <trkpt lat="43.40085" lon="6.70116">
        <ele>72.24</ele>
        <time>2012-05-28T08:15:51Z</time>
      </trkpt>
      <trkpt lat="43.40074" lon="6.70128">
        <ele>75.12</ele>
        <time>2012-05-28T08:16:00Z</time>
      </trkpt>
      <trkpt lat="43.40052" lon="6.70124">
        <ele>78</ele>
        <time>2012-05-28T08:16:14Z</time>
      </trkpt>
      <trkpt lat="43.40034" lon="6.70116">
        <ele>80.89</ele>
        <time>2012-05-28T08:16:27Z</time>
      </trkpt>
      <trkpt lat="43.40013" lon="6.70106">
        <ele>84.25</ele>
        <time>2012-05-28T08:16:43Z</time>
      </trkpt>
      <trkpt lat="43.39991" lon="6.70109">
        <ele>87.14</ele>
        <time>2012-05-28T08:16:59Z</time>
      </trkpt>
      <trkpt lat="43.39975" lon="6.70117">
        <ele>89.06</ele>
        <time>2012-05-28T08:17:12Z</time>
      </trkpt>
      <trkpt lat="43.39954" lon="6.70124">
        <ele>92.42</ele>
        <time>2012-05-28T08:17:28Z</time>
      </trkpt>
      <trkpt lat="43.39939" lon="6.70131">
        <ele>95.31</ele>
        <time>2012-05-28T08:17:39Z</time>
      </trkpt>
      <trkpt lat="43.39926" lon="6.70134">
        <ele>98.67</ele>
        <time>2012-05-28T08:17:50Z</time>
      </trkpt>
      <trkpt lat="43.39908" lon="6.70138">
        <ele>101.08</ele>
        <time>2012-05-28T08:18:04Z</time>
      </trkpt>
      <trkpt lat="43.39893" lon="6.70147">
        <ele>103.96</ele>
        <time>2012-05-28T08:18:20Z</time>
      </trkpt>
      <trkpt lat="43.39878" lon="6.70161">
        <ele>104.92</ele>
        <time>2012-05-28T08:18:34Z</time>
      </trkpt>
      <trkpt lat="43.39859" lon="6.70191">
        <ele>105.4</ele>
        <time>2012-05-28T08:18:53Z</time>
      </trkpt>
      <trkpt lat="43.39854" lon="6.7019">
        <ele>104.92</ele>
        <time>2012-05-28T08:19:11Z</time>
      </trkpt>
      <trkpt lat="43.39854" lon="6.7019">
        <ele>104.92</ele>
        <time>2012-05-28T08:19:15Z</time>
      </trkpt>
      <trkpt lat="43.39835" lon="6.70186">
        <ele>104.92</ele>
        <time>2012-05-28T08:19:24Z</time>
      </trkpt>
      <trkpt lat="43.39801" lon="6.70182">
        <ele>104.92</ele>
        <time>2012-05-28T08:19:37Z</time>
      </trkpt>
      <trkpt lat="43.39754" lon="6.70177">
        <ele>104.44</ele>
        <time>2012-05-28T08:19:52Z</time>
      </trkpt>
      <trkpt lat="43.39694" lon="6.70154">
        <ele>103</ele>
        <time>2012-05-28T08:20:08Z</time>
      </trkpt>
      <trkpt lat="43.39662" lon="6.70126">
        <ele>103.96</ele>
        <time>2012-05-28T08:20:22Z</time>
      </trkpt>
      <trkpt lat="43.39646" lon="6.70105">
        <ele>107.32</ele>
        <time>2012-05-28T08:20:34Z</time>
      </trkpt>
      <trkpt lat="43.39633" lon="6.70077">
        <ele>110.21</ele>
        <time>2012-05-28T08:20:48Z</time>
      </trkpt>
      <trkpt lat="43.39605" lon="6.70063">
        <ele>111.65</ele>
        <time>2012-05-28T08:21:04Z</time>
      </trkpt>
      <trkpt lat="43.39567" lon="6.70079">
        <ele>111.65</ele>
        <time>2012-05-28T08:21:24Z</time>
      </trkpt>
      <trkpt lat="43.39539" lon="6.70095">
        <ele>109.73</ele>
        <time>2012-05-28T08:21:34Z</time>
      </trkpt>
      <trkpt lat="43.39529" lon="6.701">
        <ele>109.25</ele>
        <time>2012-05-28T08:21:36Z</time>
      </trkpt>
      <trkpt lat="43.39519" lon="6.70104">
        <ele>108.77</ele>
        <time>2012-05-28T08:21:38Z</time>
      </trkpt>
      <trkpt lat="43.39466" lon="6.70107">
        <ele>107.81</ele>
        <time>2012-05-28T08:21:51Z</time>
      </trkpt>
      <trkpt lat="43.39411" lon="6.70094">
        <ele>105.4</ele>
        <time>2012-05-28T08:22:01Z</time>
      </trkpt>
      <trkpt lat="43.39396" lon="6.70089">
        <ele>105.4</ele>
        <time>2012-05-28T08:22:04Z</time>
      </trkpt>
      <trkpt lat="43.3934" lon="6.70041">
        <ele>103.96</ele>
        <time>2012-05-28T08:22:20Z</time>
      </trkpt>
      <trkpt lat="43.39336" lon="6.70036">
        <ele>103.48</ele>
        <time>2012-05-28T08:22:21Z</time>
      </trkpt>
      <trkpt lat="43.39304" lon="6.69994">
        <ele>102.52</ele>
        <time>2012-05-28T08:22:33Z</time>
      </trkpt>
      <trkpt lat="43.39288" lon="6.69976">
        <ele>104.92</ele>
        <time>2012-05-28T08:22:50Z</time>
      </trkpt>
      <trkpt lat="43.39287" lon="6.69975">
        <ele>104.92</ele>
        <time>2012-05-28T08:23:17Z</time>
      </trkpt>
      <trkpt lat="43.39288" lon="6.69974">
        <ele>104.92</ele>
        <time>2012-05-28T08:23:43Z</time>
      </trkpt>
      <trkpt lat="43.39288" lon="6.69976">
        <ele>104.92</ele>
        <time>2012-05-28T08:24:22Z</time>
      </trkpt>
      <trkpt lat="43.39287" lon="6.69977">
        <ele>105.4</ele>
        <time>2012-05-28T08:25:52Z</time>
      </trkpt>
      <trkpt lat="43.39282" lon="6.69977">
        <ele>105.4</ele>
        <time>2012-05-28T08:25:56Z</time>
      </trkpt>
      <trkpt lat="43.39239" lon="6.69976">
        <ele>104.92</ele>
        <time>2012-05-28T08:26:11Z</time>
      </trkpt>
      <trkpt lat="43.39229" lon="6.69965">
        <ele>103.96</ele>
        <time>2012-05-28T08:26:21Z</time>
      </trkpt>
      <trkpt lat="43.39228" lon="6.69965">
        <ele>103.48</ele>
        <time>2012-05-28T08:26:27Z</time>
      </trkpt>
      <trkpt lat="43.39233" lon="6.69958">
        <ele>105.88</ele>
        <time>2012-05-28T08:26:41Z</time>
      </trkpt>
      <trkpt lat="43.39235" lon="6.69959">
        <ele>105.88</ele>
        <time>2012-05-28T08:26:56Z</time>
      </trkpt>
      <trkpt lat="43.39237" lon="6.6996">
        <ele>106.36</ele>
        <time>2012-05-28T08:27:07Z</time>
      </trkpt>
      <trkpt lat="43.39235" lon="6.69961">
        <ele>106.36</ele>
        <time>2012-05-28T08:27:31Z</time>
      </trkpt>
      <trkpt lat="43.3924" lon="6.69968">
        <ele>105.88</ele>
        <time>2012-05-28T08:27:49Z</time>
      </trkpt>
      <trkpt lat="43.39237" lon="6.69965">
        <ele>106.36</ele>
        <time>2012-05-28T08:28:29Z</time>
      </trkpt>
      <trkpt lat="43.39237" lon="6.69961">
        <ele>105.88</ele>
        <time>2012-05-28T08:28:53Z</time>
      </trkpt>
      <trkpt lat="43.39236" lon="6.69961">
        <ele>106.36</ele>
        <time>2012-05-28T08:29:05Z</time>
      </trkpt>
      <trkpt lat="43.39228" lon="6.69965">
        <ele>104.92</ele>
        <time>2012-05-28T08:29:23Z</time>
      </trkpt>
      <trkpt lat="43.39228" lon="6.6997">
        <ele>103.48</ele>
        <time>2012-05-28T08:29:32Z</time>
      </trkpt>
      <trkpt lat="43.39228" lon="6.6997">
        <ele>103.48</ele>
        <time>2012-05-28T08:29:35Z</time>
      </trkpt>
      <trkpt lat="43.39203" lon="6.69944">
        <ele>101.56</ele>
        <time>2012-05-28T08:29:46Z</time>
      </trkpt>
      <trkpt lat="43.39202" lon="6.69938">
        <ele>101.56</ele>
        <time>2012-05-28T08:29:47Z</time>
      </trkpt>
      <trkpt lat="43.39192" lon="6.69883">
        <ele>102.52</ele>
        <time>2012-05-28T08:30:02Z</time>
      </trkpt>
      <trkpt lat="43.39172" lon="6.69863">
        <ele>105.88</ele>
        <time>2012-05-28T08:30:17Z</time>
      </trkpt>
      <trkpt lat="43.3915" lon="6.69853">
        <ele>108.77</ele>
        <time>2012-05-28T08:30:31Z</time>
      </trkpt>
      <trkpt lat="43.39136" lon="6.69833">
        <ele>111.65</ele>
        <time>2012-05-28T08:30:44Z</time>
      </trkpt>
      <trkpt lat="43.39133" lon="6.69796">
        <ele>113.57</ele>
        <time>2012-05-28T08:31:00Z</time>
      </trkpt>
      <trkpt lat="43.39132" lon="6.69764">
        <ele>116.94</ele>
        <time>2012-05-28T08:31:16Z</time>
      </trkpt>
      <trkpt lat="43.39132" lon="6.6974">
        <ele>119.82</ele>
        <time>2012-05-28T08:31:29Z</time>
      </trkpt>
      <trkpt lat="43.39132" lon="6.69716">
        <ele>123.19</ele>
        <time>2012-05-28T08:31:43Z</time>
      </trkpt>
      <trkpt lat="43.39124" lon="6.69688">
        <ele>126.07</ele>
        <time>2012-05-28T08:32:01Z</time>
      </trkpt>
      <trkpt lat="43.39117" lon="6.69661">
        <ele>129.43</ele>
        <time>2012-05-28T08:32:19Z</time>
      </trkpt>
      <trkpt lat="43.39115" lon="6.69649">
        <ele>130.88</ele>
        <time>2012-05-28T08:32:27Z</time>
      </trkpt>
      <trkpt lat="43.39109" lon="6.69617">
        <ele>133.28</ele>
        <time>2012-05-28T08:32:46Z</time>
      </trkpt>
      <trkpt lat="43.39102" lon="6.69591">
        <ele>136.16</ele>
        <time>2012-05-28T08:33:05Z</time>
      </trkpt>
      <trkpt lat="43.39096" lon="6.69569">
        <ele>139.53</ele>
        <time>2012-05-28T08:33:19Z</time>
      </trkpt>
      <trkpt lat="43.39086" lon="6.69546">
        <ele>142.41</ele>
        <time>2012-05-28T08:33:34Z</time>
      </trkpt>
      <trkpt lat="43.39071" lon="6.69529">
        <ele>145.78</ele>
        <time>2012-05-28T08:33:50Z</time>
      </trkpt>
      <trkpt lat="43.39048" lon="6.69519">
        <ele>148.66</ele>
        <time>2012-05-28T08:34:10Z</time>
      </trkpt>
      <trkpt lat="43.39028" lon="6.69502">
        <ele>151.54</ele>
        <time>2012-05-28T08:34:31Z</time>
      </trkpt>
      <trkpt lat="43.39009" lon="6.69485">
        <ele>154.43</ele>
        <time>2012-05-28T08:34:49Z</time>
      </trkpt>
      <trkpt lat="43.3899" lon="6.69471">
        <ele>157.31</ele>
        <time>2012-05-28T08:35:06Z</time>
      </trkpt>
      <trkpt lat="43.38971" lon="6.69449">
        <ele>160.68</ele>
        <time>2012-05-28T08:35:26Z</time>
      </trkpt>
      <trkpt lat="43.38964" lon="6.69425">
        <ele>163.56</ele>
        <time>2012-05-28T08:35:41Z</time>
      </trkpt>
      <trkpt lat="43.38957" lon="6.69398">
        <ele>166.45</ele>
        <time>2012-05-28T08:35:58Z</time>
      </trkpt>
      <trkpt lat="43.38947" lon="6.69372">
        <ele>169.81</ele>
        <time>2012-05-28T08:36:15Z</time>
      </trkpt>
      <trkpt lat="43.38938" lon="6.69348">
        <ele>172.69</ele>
        <time>2012-05-28T08:36:31Z</time>
      </trkpt>
      <trkpt lat="43.38928" lon="6.69333">
        <ele>176.06</ele>
        <time>2012-05-28T08:36:44Z</time>
      </trkpt>
      <trkpt lat="43.38919" lon="6.69316">
        <ele>178.46</ele>
        <time>2012-05-28T08:36:56Z</time>
      </trkpt>
      <trkpt lat="43.38915" lon="6.69312">
        <ele>180.38</ele>
        <time>2012-05-28T08:37:07Z</time>
      </trkpt>
      <trkpt lat="43.38913" lon="6.69309">
        <ele>180.87</ele>
        <time>2012-05-28T08:37:45Z</time>
      </trkpt>
      <trkpt lat="43.38892" lon="6.69297">
        <ele>183.27</ele>
        <time>2012-05-28T08:38:09Z</time>
      </trkpt>
      <trkpt lat="43.38872" lon="6.69287">
        <ele>186.15</ele>
        <time>2012-05-28T08:38:33Z</time>
      </trkpt>
      <trkpt lat="43.38854" lon="6.69277">
        <ele>189.52</ele>
        <time>2012-05-28T08:38:55Z</time>
      </trkpt>
      <trkpt lat="43.38845" lon="6.6927">
        <ele>192.4</ele>
        <time>2012-05-28T08:39:12Z</time>
      </trkpt>
      <trkpt lat="43.38831" lon="6.69262">
        <ele>194.32</ele>
        <time>2012-05-28T08:39:28Z</time>
      </trkpt>
      <trkpt lat="43.38816" lon="6.69242">
        <ele>197.21</ele>
        <time>2012-05-28T08:39:49Z</time>
      </trkpt>
      <trkpt lat="43.38801" lon="6.69219">
        <ele>200.57</ele>
        <time>2012-05-28T08:40:11Z</time>
      </trkpt>
      <trkpt lat="43.38789" lon="6.69206">
        <ele>203.46</ele>
        <time>2012-05-28T08:40:30Z</time>
      </trkpt>
      <trkpt lat="43.38786" lon="6.69203">
        <ele>204.42</ele>
        <time>2012-05-28T08:40:47Z</time>
      </trkpt>
      <trkpt lat="43.38786" lon="6.69201">
        <ele>204.9</ele>
        <time>2012-05-28T08:41:00Z</time>
      </trkpt>
      <trkpt lat="43.38786" lon="6.692">
        <ele>203.94</ele>
        <time>2012-05-28T08:41:20Z</time>
      </trkpt>
      <trkpt lat="43.38785" lon="6.69204">
        <ele>204.9</ele>
        <time>2012-05-28T08:41:35Z</time>
      </trkpt>
      <trkpt lat="43.38786" lon="6.69205">
        <ele>204.42</ele>
        <time>2012-05-28T08:41:49Z</time>
      </trkpt>
      <trkpt lat="43.38783" lon="6.69207">
        <ele>204.9</ele>
        <time>2012-05-28T08:42:31Z</time>
      </trkpt>
      <trkpt lat="43.38785" lon="6.69207">
        <ele>203.94</ele>
        <time>2012-05-28T08:43:31Z</time>
      </trkpt>
      <trkpt lat="43.38785" lon="6.69205">
        <ele>203.94</ele>
        <time>2012-05-28T08:44:00Z</time>
      </trkpt>
      <trkpt lat="43.38787" lon="6.69203">
        <ele>204.42</ele>
        <time>2012-05-28T08:44:14Z</time>
      </trkpt>
      <trkpt lat="43.38786" lon="6.69203">
        <ele>203.46</ele>
        <time>2012-05-28T08:44:45Z</time>
      </trkpt>
      <trkpt lat="43.38786" lon="6.69204">
        <ele>204.42</ele>
        <time>2012-05-28T08:45:05Z</time>
      </trkpt>
      <trkpt lat="43.38785" lon="6.69201">
        <ele>204.42</ele>
        <time>2012-05-28T08:45:44Z</time>
      </trkpt>
      <trkpt lat="43.38785" lon="6.69203">
        <ele>203.94</ele>
        <time>2012-05-28T08:45:49Z</time>
      </trkpt>
      <trkpt lat="43.3878" lon="6.692">
        <ele>203.94</ele>
        <time>2012-05-28T08:45:54Z</time>
      </trkpt>
      <trkpt lat="43.38764" lon="6.69183">
        <ele>206.34</ele>
        <time>2012-05-28T08:46:12Z</time>
      </trkpt>
      <trkpt lat="43.38745" lon="6.6916">
        <ele>207.3</ele>
        <time>2012-05-28T08:46:32Z</time>
      </trkpt>
      <trkpt lat="43.38723" lon="6.69145">
        <ele>207.78</ele>
        <time>2012-05-28T08:46:49Z</time>
      </trkpt>
      <trkpt lat="43.38713" lon="6.69133">
        <ele>208.26</ele>
        <time>2012-05-28T08:47:03Z</time>
      </trkpt>
      <trkpt lat="43.3872" lon="6.69119">
        <ele>211.15</ele>
        <time>2012-05-28T08:47:21Z</time>
      </trkpt>
      <trkpt lat="43.38727" lon="6.69103">
        <ele>214.51</ele>
        <time>2012-05-28T08:47:38Z</time>
      </trkpt>
      <trkpt lat="43.38729" lon="6.69085">
        <ele>216.43</ele>
        <time>2012-05-28T08:47:56Z</time>
      </trkpt>
      <trkpt lat="43.38731" lon="6.69083">
        <ele>216.91</ele>
        <time>2012-05-28T08:48:06Z</time>
      </trkpt>
      <trkpt lat="43.38734" lon="6.69086">
        <ele>216.91</ele>
        <time>2012-05-28T08:48:10Z</time>
      </trkpt>
      <trkpt lat="43.38764" lon="6.69114">
        <ele>218.36</ele>
        <time>2012-05-28T08:48:29Z</time>
      </trkpt>
      <trkpt lat="43.38791" lon="6.69124">
        <ele>219.32</ele>
        <time>2012-05-28T08:48:47Z</time>
      </trkpt>
      <trkpt lat="43.38806" lon="6.6914">
        <ele>218.84</ele>
        <time>2012-05-28T08:48:57Z</time>
      </trkpt>
      <trkpt lat="43.38813" lon="6.69145">
        <ele>218.36</ele>
        <time>2012-05-28T08:49:02Z</time>
      </trkpt>
      <trkpt lat="43.38825" lon="6.69133">
        <ele>217.88</ele>
        <time>2012-05-28T08:49:15Z</time>
      </trkpt>
      <trkpt lat="43.38825" lon="6.69132">
        <ele>217.88</ele>
        <time>2012-05-28T08:49:16Z</time>
      </trkpt>
      <trkpt lat="43.38818" lon="6.69132">
        <ele>218.36</ele>
        <time>2012-05-28T08:49:23Z</time>
      </trkpt>
      <trkpt lat="43.38798" lon="6.69131">
        <ele>218.36</ele>
        <time>2012-05-28T08:49:36Z</time>
      </trkpt>
      <trkpt lat="43.38768" lon="6.69117">
        <ele>218.36</ele>
        <time>2012-05-28T08:49:52Z</time>
      </trkpt>
      <trkpt lat="43.38754" lon="6.69105">
        <ele>217.4</ele>
        <time>2012-05-28T08:49:57Z</time>
      </trkpt>
      <trkpt lat="43.38718" lon="6.69069">
        <ele>216.91</ele>
        <time>2012-05-28T08:50:09Z</time>
      </trkpt>
      <trkpt lat="43.38708" lon="6.69062">
        <ele>216.91</ele>
        <time>2012-05-28T08:50:13Z</time>
      </trkpt>
      <trkpt lat="43.38679" lon="6.69044">
        <ele>215.95</ele>
        <time>2012-05-28T08:50:29Z</time>
      </trkpt>
      <trkpt lat="43.38674" lon="6.69003">
        <ele>213.55</ele>
        <time>2012-05-28T08:50:42Z</time>
      </trkpt>
      <trkpt lat="43.38653" lon="6.68959">
        <ele>211.15</ele>
        <time>2012-05-28T08:50:54Z</time>
      </trkpt>
      <trkpt lat="43.38646" lon="6.68943">
        <ele>210.67</ele>
        <time>2012-05-28T08:51:01Z</time>
      </trkpt>
      <trkpt lat="43.38644" lon="6.68934">
        <ele>210.67</ele>
        <time>2012-05-28T08:51:05Z</time>
      </trkpt>
      <trkpt lat="43.38647" lon="6.68926">
        <ele>211.63</ele>
        <time>2012-05-28T08:51:22Z</time>
      </trkpt>
      <trkpt lat="43.38644" lon="6.68917">
        <ele>209.7</ele>
        <time>2012-05-28T08:51:36Z</time>
      </trkpt>
      <trkpt lat="43.38642" lon="6.68914">
        <ele>209.22</ele>
        <time>2012-05-28T08:51:49Z</time>
      </trkpt>
      <trkpt lat="43.38644" lon="6.68916">
        <ele>209.22</ele>
        <time>2012-05-28T08:52:02Z</time>
      </trkpt>
      <trkpt lat="43.38646" lon="6.68926">
        <ele>210.67</ele>
        <time>2012-05-28T08:52:18Z</time>
      </trkpt>
      <trkpt lat="43.38644" lon="6.68924">
        <ele>211.15</ele>
        <time>2012-05-28T08:52:35Z</time>
      </trkpt>
      <trkpt lat="43.38647" lon="6.68925">
        <ele>211.63</ele>
        <time>2012-05-28T08:52:48Z</time>
      </trkpt>
      <trkpt lat="43.38649" lon="6.68926">
        <ele>211.15</ele>
        <time>2012-05-28T08:53:40Z</time>
      </trkpt>
      <trkpt lat="43.38646" lon="6.68927">
        <ele>210.67</ele>
        <time>2012-05-28T08:53:51Z</time>
      </trkpt>
      <trkpt lat="43.38645" lon="6.68926">
        <ele>211.15</ele>
        <time>2012-05-28T08:54:17Z</time>
      </trkpt>
      <trkpt lat="43.38645" lon="6.68925">
        <ele>211.15</ele>
        <time>2012-05-28T08:55:11Z</time>
      </trkpt>
      <trkpt lat="43.38645" lon="6.68924">
        <ele>210.67</ele>
        <time>2012-05-28T08:55:44Z</time>
      </trkpt>
      <trkpt lat="43.38645" lon="6.68925">
        <ele>211.15</ele>
        <time>2012-05-28T08:56:06Z</time>
      </trkpt>
      <trkpt lat="43.38645" lon="6.68927">
        <ele>210.67</ele>
        <time>2012-05-28T08:56:09Z</time>
      </trkpt>
      <trkpt lat="43.38654" lon="6.68959">
        <ele>211.15</ele>
        <time>2012-05-28T08:56:30Z</time>
      </trkpt>
      <trkpt lat="43.38658" lon="6.68967">
        <ele>211.15</ele>
        <time>2012-05-28T08:56:46Z</time>
      </trkpt>
      <trkpt lat="43.38673" lon="6.68996">
        <ele>212.11</ele>
        <time>2012-05-28T08:57:05Z</time>
      </trkpt>
      <trkpt lat="43.38677" lon="6.69028">
        <ele>214.51</ele>
        <time>2012-05-28T08:57:23Z</time>
      </trkpt>
      <trkpt lat="43.38688" lon="6.69054">
        <ele>216.91</ele>
        <time>2012-05-28T08:57:40Z</time>
      </trkpt>
      <trkpt lat="43.38713" lon="6.69067">
        <ele>217.4</ele>
        <time>2012-05-28T08:57:57Z</time>
      </trkpt>
      <trkpt lat="43.38724" lon="6.69074">
        <ele>217.4</ele>
        <time>2012-05-28T08:58:04Z</time>
      </trkpt>
      <trkpt lat="43.38731" lon="6.69092">
        <ele>216.91</ele>
        <time>2012-05-28T08:58:13Z</time>
      </trkpt>
      <trkpt lat="43.38725" lon="6.69115">
        <ele>214.03</ele>
        <time>2012-05-28T08:58:27Z</time>
      </trkpt>
      <trkpt lat="43.38715" lon="6.6913">
        <ele>210.67</ele>
        <time>2012-05-28T08:58:38Z</time>
      </trkpt>
      <trkpt lat="43.38706" lon="6.69132">
        <ele>208.26</ele>
        <time>2012-05-28T08:58:45Z</time>
      </trkpt>
      <trkpt lat="43.38688" lon="6.6912">
        <ele>208.74</ele>
        <time>2012-05-28T08:59:04Z</time>
      </trkpt>
      <trkpt lat="43.3866" lon="6.69103">
        <ele>209.22</ele>
        <time>2012-05-28T08:59:23Z</time>
      </trkpt>
      <trkpt lat="43.38631" lon="6.69087">
        <ele>207.78</ele>
        <time>2012-05-28T08:59:35Z</time>
      </trkpt>
      <trkpt lat="43.38596" lon="6.69084">
        <ele>204.42</ele>
        <time>2012-05-28T08:59:42Z</time>
      </trkpt>
      <trkpt lat="43.38542" lon="6.6909">
        <ele>201.05</ele>
        <time>2012-05-28T08:59:48Z</time>
      </trkpt>
      <trkpt lat="43.38505" lon="6.69094">
        <ele>198.17</ele>
        <time>2012-05-28T08:59:52Z</time>
      </trkpt>
      <trkpt lat="43.3849" lon="6.69098">
        <ele>197.69</ele>
        <time>2012-05-28T08:59:54Z</time>
      </trkpt>
      <trkpt lat="43.38452" lon="6.69122">
        <ele>200.09</ele>
        <time>2012-05-28T09:00:04Z</time>
      </trkpt>
      <trkpt lat="43.38415" lon="6.69145">
        <ele>202.98</ele>
        <time>2012-05-28T09:00:20Z</time>
      </trkpt>
      <trkpt lat="43.38383" lon="6.6919">
        <ele>205.86</ele>
        <time>2012-05-28T09:00:40Z</time>
      </trkpt>
      <trkpt lat="43.38362" lon="6.69172">
        <ele>207.3</ele>
        <time>2012-05-28T09:00:54Z</time>
      </trkpt>
      <trkpt lat="43.38346" lon="6.69133">
        <ele>210.19</ele>
        <time>2012-05-28T09:01:14Z</time>
      </trkpt>
      <trkpt lat="43.38331" lon="6.69098">
        <ele>212.59</ele>
        <time>2012-05-28T09:01:31Z</time>
      </trkpt>
      <trkpt lat="43.38309" lon="6.69079">
        <ele>215.95</ele>
        <time>2012-05-28T09:01:47Z</time>
      </trkpt>
      <trkpt lat="43.38273" lon="6.6908">
        <ele>216.43</ele>
        <time>2012-05-28T09:02:00Z</time>
      </trkpt>
      <trkpt lat="43.38251" lon="6.69083">
        <ele>215.95</ele>
        <time>2012-05-28T09:02:05Z</time>
      </trkpt>
      <trkpt lat="43.38219" lon="6.69095">
        <ele>217.4</ele>
        <time>2012-05-28T09:02:17Z</time>
      </trkpt>
      <trkpt lat="43.38198" lon="6.69105">
        <ele>220.76</ele>
        <time>2012-05-28T09:02:29Z</time>
      </trkpt>
      <trkpt lat="43.38172" lon="6.69127">
        <ele>223.64</ele>
        <time>2012-05-28T09:02:45Z</time>
      </trkpt>
      <trkpt lat="43.38161" lon="6.69151">
        <ele>226.53</ele>
        <time>2012-05-28T09:02:58Z</time>
      </trkpt>
      <trkpt lat="43.3815" lon="6.69186">
        <ele>228.93</ele>
        <time>2012-05-28T09:03:18Z</time>
      </trkpt>
      <trkpt lat="43.38122" lon="6.69204">
        <ele>227.97</ele>
        <time>2012-05-28T09:03:30Z</time>
      </trkpt>
      <trkpt lat="43.3807" lon="6.69232">
        <ele>224.61</ele>
        <time>2012-05-28T09:03:39Z</time>
      </trkpt>
      <trkpt lat="43.38052" lon="6.69247">
        <ele>224.61</ele>
        <time>2012-05-28T09:03:43Z</time>
      </trkpt>
      <trkpt lat="43.38025" lon="6.69284">
        <ele>227.49</ele>
        <time>2012-05-28T09:03:58Z</time>
      </trkpt>
      <trkpt lat="43.38002" lon="6.69305">
        <ele>229.89</ele>
        <time>2012-05-28T09:04:14Z</time>
      </trkpt>
      <trkpt lat="43.37973" lon="6.69304">
        <ele>230.85</ele>
        <time>2012-05-28T09:04:28Z</time>
      </trkpt>
      <trkpt lat="43.37942" lon="6.69287">
        <ele>231.81</ele>
        <time>2012-05-28T09:04:45Z</time>
      </trkpt>
      <trkpt lat="43.37915" lon="6.69258">
        <ele>234.7</ele>
        <time>2012-05-28T09:05:04Z</time>
      </trkpt>
      <trkpt lat="43.3788" lon="6.69242">
        <ele>234.7</ele>
        <time>2012-05-28T09:05:24Z</time>
      </trkpt>
      <trkpt lat="43.37847" lon="6.69245">
        <ele>233.74</ele>
        <time>2012-05-28T09:05:36Z</time>
      </trkpt>
      <trkpt lat="43.37823" lon="6.69233">
        <ele>233.26</ele>
        <time>2012-05-28T09:05:54Z</time>
      </trkpt>
      <trkpt lat="43.37824" lon="6.69234">
        <ele>232.78</ele>
        <time>2012-05-28T09:06:13Z</time>
      </trkpt>
      <trkpt lat="43.37832" lon="6.69242">
        <ele>233.26</ele>
        <time>2012-05-28T09:06:27Z</time>
      </trkpt>
      <trkpt lat="43.37832" lon="6.69243">
        <ele>233.26</ele>
        <time>2012-05-28T09:06:32Z</time>
      </trkpt>
      <trkpt lat="43.37824" lon="6.69232">
        <ele>232.78</ele>
        <time>2012-05-28T09:06:46Z</time>
      </trkpt>
      <trkpt lat="43.37825" lon="6.69232">
        <ele>232.3</ele>
        <time>2012-05-28T09:07:05Z</time>
      </trkpt>
      <trkpt lat="43.37821" lon="6.69228">
        <ele>233.26</ele>
        <time>2012-05-28T09:07:19Z</time>
      </trkpt>
      <trkpt lat="43.37818" lon="6.69226">
        <ele>232.78</ele>
        <time>2012-05-28T09:07:33Z</time>
      </trkpt>
      <trkpt lat="43.37817" lon="6.69222">
        <ele>233.26</ele>
        <time>2012-05-28T09:07:56Z</time>
      </trkpt>
      <trkpt lat="43.37816" lon="6.69222">
        <ele>233.26</ele>
        <time>2012-05-28T09:08:51Z</time>
      </trkpt>
      <trkpt lat="43.37817" lon="6.69225">
        <ele>233.26</ele>
        <time>2012-05-28T09:09:09Z</time>
      </trkpt>
      <trkpt lat="43.37817" lon="6.69225">
        <ele>233.26</ele>
        <time>2012-05-28T09:09:33Z</time>
      </trkpt>
      <trkpt lat="43.37814" lon="6.69217">
        <ele>232.78</ele>
        <time>2012-05-28T09:09:57Z</time>
      </trkpt>
      <trkpt lat="43.37814" lon="6.69218">
        <ele>233.26</ele>
        <time>2012-05-28T09:10:45Z</time>
      </trkpt>
      <trkpt lat="43.37814" lon="6.69219">
        <ele>233.74</ele>
        <time>2012-05-28T09:12:31Z</time>
      </trkpt>
      <trkpt lat="43.37822" lon="6.6923">
        <ele>234.22</ele>
        <time>2012-05-28T09:12:50Z</time>
      </trkpt>
      <trkpt lat="43.37824" lon="6.69232">
        <ele>233.26</ele>
        <time>2012-05-28T09:13:08Z</time>
      </trkpt>
      <trkpt lat="43.37825" lon="6.69231">
        <ele>233.26</ele>
        <time>2012-05-28T09:14:15Z</time>
      </trkpt>
      <trkpt lat="43.37826" lon="6.69232">
        <ele>233.26</ele>
        <time>2012-05-28T09:14:58Z</time>
      </trkpt>
      <trkpt lat="43.37824" lon="6.69233">
        <ele>233.74</ele>
        <time>2012-05-28T09:15:29Z</time>
      </trkpt>
      <trkpt lat="43.37832" lon="6.69241">
        <ele>233.74</ele>
        <time>2012-05-28T09:15:44Z</time>
      </trkpt>
      <trkpt lat="43.37834" lon="6.69241">
        <ele>233.26</ele>
        <time>2012-05-28T09:16:00Z</time>
      </trkpt>
      <trkpt lat="43.37832" lon="6.69238">
        <ele>233.26</ele>
        <time>2012-05-28T09:16:05Z</time>
      </trkpt>
      <trkpt lat="43.3783" lon="6.69233">
        <ele>233.26</ele>
        <time>2012-05-28T09:16:08Z</time>
      </trkpt>
      <trkpt lat="43.37816" lon="6.69224">
        <ele>233.26</ele>
        <time>2012-05-28T09:16:27Z</time>
      </trkpt>
      <trkpt lat="43.37815" lon="6.69216">
        <ele>233.26</ele>
        <time>2012-05-28T09:16:49Z</time>
      </trkpt>
      <trkpt lat="43.37812" lon="6.6918">
        <ele>233.26</ele>
        <time>2012-05-28T09:17:02Z</time>
      </trkpt>
      <trkpt lat="43.37802" lon="6.69125">
        <ele>234.7</ele>
        <time>2012-05-28T09:17:19Z</time>
      </trkpt>
      <trkpt lat="43.37793" lon="6.69083">
        <ele>235.66</ele>
        <time>2012-05-28T09:17:37Z</time>
      </trkpt>
      <trkpt lat="43.3779" lon="6.69074">
        <ele>236.14</ele>
        <time>2012-05-28T09:17:42Z</time>
      </trkpt>
      <trkpt lat="43.3777" lon="6.69048">
        <ele>238.06</ele>
        <time>2012-05-28T09:17:59Z</time>
      </trkpt>
      <trkpt lat="43.37759" lon="6.69033">
        <ele>239.02</ele>
        <time>2012-05-28T09:18:10Z</time>
      </trkpt>
      <trkpt lat="43.37765" lon="6.69028">
        <ele>239.99</ele>
        <time>2012-05-28T09:18:20Z</time>
      </trkpt>
      <trkpt lat="43.37768" lon="6.69028">
        <ele>239.99</ele>
        <time>2012-05-28T09:18:23Z</time>
      </trkpt>
      <trkpt lat="43.37763" lon="6.69018">
        <ele>239.02</ele>
        <time>2012-05-28T09:18:31Z</time>
      </trkpt>
      <trkpt lat="43.37747" lon="6.68994">
        <ele>238.54</ele>
        <time>2012-05-28T09:18:40Z</time>
      </trkpt>
      <trkpt lat="43.37741" lon="6.68969">
        <ele>236.62</ele>
        <time>2012-05-28T09:18:44Z</time>
      </trkpt>
      <trkpt lat="43.37743" lon="6.68912">
        <ele>236.62</ele>
        <time>2012-05-28T09:18:55Z</time>
      </trkpt>
      <trkpt lat="43.37744" lon="6.68872">
        <ele>239.02</ele>
        <time>2012-05-28T09:19:14Z</time>
      </trkpt>
      <trkpt lat="43.3774" lon="6.68847">
        <ele>238.06</ele>
        <time>2012-05-28T09:19:21Z</time>
      </trkpt>
      <trkpt lat="43.37741" lon="6.68807">
        <ele>237.1</ele>
        <time>2012-05-28T09:19:25Z</time>
      </trkpt>
      <trkpt lat="43.37742" lon="6.68772">
        <ele>235.18</ele>
        <time>2012-05-28T09:19:34Z</time>
      </trkpt>
      <trkpt lat="43.37757" lon="6.6875">
        <ele>232.78</ele>
        <time>2012-05-28T09:19:52Z</time>
      </trkpt>
      <trkpt lat="43.37771" lon="6.68738">
        <ele>229.41</ele>
        <time>2012-05-28T09:20:01Z</time>
      </trkpt>
      <trkpt lat="43.37772" lon="6.68736">
        <ele>229.41</ele>
        <time>2012-05-28T09:20:02Z</time>
      </trkpt>
      <trkpt lat="43.37777" lon="6.6873">
        <ele>227.01</ele>
        <time>2012-05-28T09:20:06Z</time>
      </trkpt>
      <trkpt lat="43.37787" lon="6.68717">
        <ele>224.12</ele>
        <time>2012-05-28T09:20:14Z</time>
      </trkpt>
      <trkpt lat="43.37798" lon="6.68703">
        <ele>220.76</ele>
        <time>2012-05-28T09:20:23Z</time>
      </trkpt>
      <trkpt lat="43.37809" lon="6.6869">
        <ele>217.4</ele>
        <time>2012-05-28T09:20:33Z</time>
      </trkpt>
      <trkpt lat="43.3781" lon="6.68686">
        <ele>215.47</ele>
        <time>2012-05-28T09:20:48Z</time>
      </trkpt>
      <trkpt lat="43.37815" lon="6.6868">
        <ele>214.03</ele>
        <time>2012-05-28T09:21:06Z</time>
      </trkpt>
      <trkpt lat="43.37822" lon="6.68668">
        <ele>210.67</ele>
        <time>2012-05-28T09:21:20Z</time>
      </trkpt>
      <trkpt lat="43.37829" lon="6.6866">
        <ele>207.78</ele>
        <time>2012-05-28T09:21:32Z</time>
      </trkpt>
      <trkpt lat="43.37835" lon="6.68656">
        <ele>206.34</ele>
        <time>2012-05-28T09:21:41Z</time>
      </trkpt>
      <trkpt lat="43.37847" lon="6.68647">
        <ele>202.49</ele>
        <time>2012-05-28T09:21:56Z</time>
      </trkpt>
      <trkpt lat="43.3786" lon="6.68636">
        <ele>199.61</ele>
        <time>2012-05-28T09:22:13Z</time>
      </trkpt>
      <trkpt lat="43.37879" lon="6.68615">
        <ele>196.73</ele>
        <time>2012-05-28T09:22:26Z</time>
      </trkpt>
      <trkpt lat="43.37889" lon="6.68596">
        <ele>194.8</ele>
        <time>2012-05-28T09:22:31Z</time>
      </trkpt>
      <trkpt lat="43.37896" lon="6.68582">
        <ele>192.4</ele>
        <time>2012-05-28T09:22:35Z</time>
      </trkpt>
      <trkpt lat="43.37903" lon="6.68566">
        <ele>190.48</ele>
        <time>2012-05-28T09:22:39Z</time>
      </trkpt>
      <trkpt lat="43.37907" lon="6.68554">
        <ele>188.08</ele>
        <time>2012-05-28T09:22:45Z</time>
      </trkpt>
      <trkpt lat="43.37906" lon="6.68557">
        <ele>187.59</ele>
        <time>2012-05-28T09:23:32Z</time>
      </trkpt>
      <trkpt lat="43.37907" lon="6.68556">
        <ele>187.59</ele>
        <time>2012-05-28T09:23:47Z</time>
      </trkpt>
      <trkpt lat="43.37907" lon="6.68556">
        <ele>187.11</ele>
        <time>2012-05-28T09:24:30Z</time>
      </trkpt>
      <trkpt lat="43.37908" lon="6.68556">
        <ele>187.59</ele>
        <time>2012-05-28T09:25:37Z</time>
      </trkpt>
      <trkpt lat="43.37908" lon="6.68556">
        <ele>188.08</ele>
        <time>2012-05-28T09:26:16Z</time>
      </trkpt>
      <trkpt lat="43.37908" lon="6.68556">
        <ele>188.08</ele>
        <time>2012-05-28T09:26:48Z</time>
      </trkpt>
      <trkpt lat="43.37911" lon="6.68555">
        <ele>187.59</ele>
        <time>2012-05-28T09:27:17Z</time>
      </trkpt>
      <trkpt lat="43.37935" lon="6.68545">
        <ele>184.23</ele>
        <time>2012-05-28T09:27:35Z</time>
      </trkpt>
      <trkpt lat="43.37955" lon="6.68531">
        <ele>180.87</ele>
        <time>2012-05-28T09:27:47Z</time>
      </trkpt>
      <trkpt lat="43.37975" lon="6.68522">
        <ele>177.98</ele>
        <time>2012-05-28T09:27:58Z</time>
      </trkpt>
      <trkpt lat="43.37998" lon="6.68522">
        <ele>174.14</ele>
        <time>2012-05-28T09:28:09Z</time>
      </trkpt>
      <trkpt lat="43.38016" lon="6.68515">
        <ele>171.25</ele>
        <time>2012-05-28T09:28:20Z</time>
      </trkpt>
      <trkpt lat="43.38016" lon="6.68513">
        <ele>170.77</ele>
        <time>2012-05-28T09:28:35Z</time>
      </trkpt>
      <trkpt lat="43.38032" lon="6.68499">
        <ele>168.85</ele>
        <time>2012-05-28T09:28:42Z</time>
      </trkpt>
      <trkpt lat="43.3805" lon="6.68482">
        <ele>165.96</ele>
        <time>2012-05-28T09:28:53Z</time>
      </trkpt>
      <trkpt lat="43.38048" lon="6.68484">
        <ele>166.45</ele>
        <time>2012-05-28T09:29:08Z</time>
      </trkpt>
      <trkpt lat="43.38047" lon="6.68482">
        <ele>166.45</ele>
        <time>2012-05-28T09:30:45Z</time>
      </trkpt>
      <trkpt lat="43.38046" lon="6.68482">
        <ele>166.45</ele>
        <time>2012-05-28T09:32:23Z</time>
      </trkpt>
      <trkpt lat="43.38048" lon="6.68481">
        <ele>166.93</ele>
        <time>2012-05-28T09:32:54Z</time>
      </trkpt>
      <trkpt lat="43.38067" lon="6.68468">
        <ele>165</ele>
        <time>2012-05-28T09:34:52Z</time>
      </trkpt>
      <trkpt lat="43.38086" lon="6.68445">
        <ele>161.64</ele>
        <time>2012-05-28T09:35:01Z</time>
      </trkpt>
      <trkpt lat="43.38097" lon="6.6842">
        <ele>158.27</ele>
        <time>2012-05-28T09:35:09Z</time>
      </trkpt>
      <trkpt lat="43.381" lon="6.68414">
        <ele>157.31</ele>
        <time>2012-05-28T09:35:11Z</time>
      </trkpt>
      <trkpt lat="43.38105" lon="6.684">
        <ele>155.39</ele>
        <time>2012-05-28T09:35:15Z</time>
      </trkpt>
      <trkpt lat="43.38108" lon="6.68389">
        <ele>153.95</ele>
        <time>2012-05-28T09:35:18Z</time>
      </trkpt>
      <trkpt lat="43.38113" lon="6.68381">
        <ele>152.03</ele>
        <time>2012-05-28T09:35:22Z</time>
      </trkpt>
      <trkpt lat="43.38126" lon="6.68378">
        <ele>148.18</ele>
        <time>2012-05-28T09:35:30Z</time>
      </trkpt>
      <trkpt lat="43.38138" lon="6.68371">
        <ele>145.3</ele>
        <time>2012-05-28T09:35:38Z</time>
      </trkpt>
      <trkpt lat="43.38141" lon="6.68368">
        <ele>144.34</ele>
        <time>2012-05-28T09:35:40Z</time>
      </trkpt>
      <trkpt lat="43.38145" lon="6.68366">
        <ele>142.89</ele>
        <time>2012-05-28T09:35:43Z</time>
      </trkpt>
      <trkpt lat="43.38146" lon="6.68366">
        <ele>141.93</ele>
        <time>2012-05-28T09:35:45Z</time>
      </trkpt>
      <trkpt lat="43.38148" lon="6.68366">
        <ele>140.97</ele>
        <time>2012-05-28T09:35:49Z</time>
      </trkpt>
      <trkpt lat="43.38159" lon="6.68354">
        <ele>138.09</ele>
        <time>2012-05-28T09:36:04Z</time>
      </trkpt>
      <trkpt lat="43.38173" lon="6.68344">
        <ele>135.2</ele>
        <time>2012-05-28T09:36:18Z</time>
      </trkpt>
      <trkpt lat="43.38202" lon="6.68351">
        <ele>132.32</ele>
        <time>2012-05-28T09:36:32Z</time>
      </trkpt>
      <trkpt lat="43.38202" lon="6.68347">
        <ele>131.84</ele>
        <time>2012-05-28T09:36:43Z</time>
      </trkpt>
      <trkpt lat="43.38205" lon="6.68351">
        <ele>131.84</ele>
        <time>2012-05-28T09:37:01Z</time>
      </trkpt>
      <trkpt lat="43.38212" lon="6.68386">
        <ele>130.4</ele>
        <time>2012-05-28T09:37:15Z</time>
      </trkpt>
      <trkpt lat="43.38191" lon="6.68429">
        <ele>127.03</ele>
        <time>2012-05-28T09:37:23Z</time>
      </trkpt>
      <trkpt lat="43.38178" lon="6.6845">
        <ele>126.07</ele>
        <time>2012-05-28T09:37:26Z</time>
      </trkpt>
      <trkpt lat="43.38168" lon="6.68474">
        <ele>124.15</ele>
        <time>2012-05-28T09:37:30Z</time>
      </trkpt>
      <trkpt lat="43.38164" lon="6.68502">
        <ele>122.71</ele>
        <time>2012-05-28T09:37:35Z</time>
      </trkpt>
      <trkpt lat="43.38142" lon="6.68546">
        <ele>120.78</ele>
        <time>2012-05-28T09:37:48Z</time>
      </trkpt>
      <trkpt lat="43.38124" lon="6.68568">
        <ele>120.3</ele>
        <time>2012-05-28T09:37:54Z</time>
      </trkpt>
      <trkpt lat="43.38116" lon="6.68596">
        <ele>118.38</ele>
        <time>2012-05-28T09:38:04Z</time>
      </trkpt>
      <trkpt lat="43.38121" lon="6.68598">
        <ele>117.9</ele>
        <time>2012-05-28T09:38:07Z</time>
      </trkpt>
      <trkpt lat="43.38155" lon="6.68598">
        <ele>117.42</ele>
        <time>2012-05-28T09:38:19Z</time>
      </trkpt>
      <trkpt lat="43.38172" lon="6.68593">
        <ele>117.9</ele>
        <time>2012-05-28T09:38:26Z</time>
      </trkpt>
      <trkpt lat="43.38211" lon="6.68571">
        <ele>115.98</ele>
        <time>2012-05-28T09:38:40Z</time>
      </trkpt>
      <trkpt lat="43.3824" lon="6.6855">
        <ele>115.98</ele>
        <time>2012-05-28T09:38:53Z</time>
      </trkpt>
      <trkpt lat="43.38246" lon="6.68543">
        <ele>115.98</ele>
        <time>2012-05-28T09:38:56Z</time>
      </trkpt>
      <trkpt lat="43.38255" lon="6.68534">
        <ele>115.01</ele>
        <time>2012-05-28T09:38:59Z</time>
      </trkpt>
      <trkpt lat="43.38269" lon="6.68513">
        <ele>110.69</ele>
        <time>2012-05-28T09:39:04Z</time>
      </trkpt>
      <trkpt lat="43.38271" lon="6.68509">
        <ele>110.21</ele>
        <time>2012-05-28T09:39:05Z</time>
      </trkpt>
      <trkpt lat="43.38281" lon="6.68485">
        <ele>107.81</ele>
        <time>2012-05-28T09:39:10Z</time>
      </trkpt>
      <trkpt lat="43.38313" lon="6.68445">
        <ele>104.44</ele>
        <time>2012-05-28T09:39:21Z</time>
      </trkpt>
      <trkpt lat="43.38326" lon="6.68415">
        <ele>101.56</ele>
        <time>2012-05-28T09:39:29Z</time>
      </trkpt>
      <trkpt lat="43.3834" lon="6.68408">
        <ele>100.11</ele>
        <time>2012-05-28T09:39:33Z</time>
      </trkpt>
      <trkpt lat="43.3835" lon="6.68417">
        <ele>99.15</ele>
        <time>2012-05-28T09:39:36Z</time>
      </trkpt>
      <trkpt lat="43.38358" lon="6.68435">
        <ele>96.75</ele>
        <time>2012-05-28T09:39:40Z</time>
      </trkpt>
      <trkpt lat="43.38368" lon="6.68457">
        <ele>94.35</ele>
        <time>2012-05-28T09:39:47Z</time>
      </trkpt>
      <trkpt lat="43.38373" lon="6.68449">
        <ele>94.35</ele>
        <time>2012-05-28T09:39:49Z</time>
      </trkpt>
      <trkpt lat="43.38375" lon="6.68439">
        <ele>94.35</ele>
        <time>2012-05-28T09:39:54Z</time>
      </trkpt>
      <trkpt lat="43.38392" lon="6.68397">
        <ele>97.23</ele>
        <time>2012-05-28T09:40:09Z</time>
      </trkpt>
      <trkpt lat="43.38415" lon="6.68375">
        <ele>100.11</ele>
        <time>2012-05-28T09:40:24Z</time>
      </trkpt>
      <trkpt lat="43.38423" lon="6.68371">
        <ele>100.11</ele>
        <time>2012-05-28T09:40:28Z</time>
      </trkpt>
      <trkpt lat="43.38438" lon="6.68343">
        <ele>99.15</ele>
        <time>2012-05-28T09:40:36Z</time>
      </trkpt>
      <trkpt lat="43.38466" lon="6.68293">
        <ele>99.63</ele>
        <time>2012-05-28T09:40:53Z</time>
      </trkpt>
      <trkpt lat="43.38486" lon="6.68239">
        <ele>99.63</ele>
        <time>2012-05-28T09:41:09Z</time>
      </trkpt>
      <trkpt lat="43.3849" lon="6.68225">
        <ele>99.15</ele>
        <time>2012-05-28T09:41:12Z</time>
      </trkpt>
      <trkpt lat="43.38515" lon="6.6815">
        <ele>95.79</ele>
        <time>2012-05-28T09:41:26Z</time>
      </trkpt>
      <trkpt lat="43.38522" lon="6.68139">
        <ele>94.83</ele>
        <time>2012-05-28T09:41:28Z</time>
      </trkpt>
      <trkpt lat="43.38533" lon="6.68112">
        <ele>93.39</ele>
        <time>2012-05-28T09:41:32Z</time>
      </trkpt>
      <trkpt lat="43.38539" lon="6.68057">
        <ele>90.98</ele>
        <time>2012-05-28T09:41:39Z</time>
      </trkpt>
      <trkpt lat="43.38541" lon="6.68019">
        <ele>89.54</ele>
        <time>2012-05-28T09:41:50Z</time>
      </trkpt>
      <trkpt lat="43.38541" lon="6.6802">
        <ele>89.06</ele>
        <time>2012-05-28T09:42:03Z</time>
      </trkpt>
      <trkpt lat="43.38535" lon="6.6801">
        <ele>88.58</ele>
        <time>2012-05-28T09:42:09Z</time>
      </trkpt>
      <trkpt lat="43.38529" lon="6.67965">
        <ele>84.73</ele>
        <time>2012-05-28T09:42:23Z</time>
      </trkpt>
      <trkpt lat="43.38527" lon="6.67945">
        <ele>81.37</ele>
        <time>2012-05-28T09:42:29Z</time>
      </trkpt>
      <trkpt lat="43.38523" lon="6.67915">
        <ele>78</ele>
        <time>2012-05-28T09:42:37Z</time>
      </trkpt>
      <trkpt lat="43.38523" lon="6.6791">
        <ele>77.52</ele>
        <time>2012-05-28T09:42:38Z</time>
      </trkpt>
      <trkpt lat="43.38539" lon="6.67882">
        <ele>75.12</ele>
        <time>2012-05-28T09:42:44Z</time>
      </trkpt>
      <trkpt lat="43.38566" lon="6.6787">
        <ele>73.2</ele>
        <time>2012-05-28T09:42:53Z</time>
      </trkpt>
      <trkpt lat="43.38598" lon="6.67852">
        <ele>69.35</ele>
        <time>2012-05-28T09:43:01Z</time>
      </trkpt>
      <trkpt lat="43.386" lon="6.67847">
        <ele>69.35</ele>
        <time>2012-05-28T09:43:02Z</time>
      </trkpt>
      <trkpt lat="43.38612" lon="6.6782">
        <ele>67.43</ele>
        <time>2012-05-28T09:43:07Z</time>
      </trkpt>
      <trkpt lat="43.38623" lon="6.67796">
        <ele>66.95</ele>
        <time>2012-05-28T09:43:11Z</time>
      </trkpt>
      <trkpt lat="43.38631" lon="6.67763">
        <ele>65.03</ele>
        <time>2012-05-28T09:43:18Z</time>
      </trkpt>
      <trkpt lat="43.3861" lon="6.67757">
        <ele>62.62</ele>
        <time>2012-05-28T09:43:24Z</time>
      </trkpt>
      <trkpt lat="43.38596" lon="6.67753">
        <ele>61.18</ele>
        <time>2012-05-28T09:43:27Z</time>
      </trkpt>
      <trkpt lat="43.38579" lon="6.67754">
        <ele>57.82</ele>
        <time>2012-05-28T09:43:32Z</time>
      </trkpt>
      <trkpt lat="43.3857" lon="6.67754">
        <ele>55.41</ele>
        <time>2012-05-28T09:43:35Z</time>
      </trkpt>
      <trkpt lat="43.38573" lon="6.67736">
        <ele>53.97</ele>
        <time>2012-05-28T09:43:40Z</time>
      </trkpt>
      <trkpt lat="43.38582" lon="6.67726">
        <ele>53.01</ele>
        <time>2012-05-28T09:43:42Z</time>
      </trkpt>
      <trkpt lat="43.38598" lon="6.67712">
        <ele>51.57</ele>
        <time>2012-05-28T09:43:46Z</time>
      </trkpt>
      <trkpt lat="43.38613" lon="6.67698">
        <ele>50.13</ele>
        <time>2012-05-28T09:43:50Z</time>
      </trkpt>
      <trkpt lat="43.38624" lon="6.67677">
        <ele>48.2</ele>
        <time>2012-05-28T09:43:54Z</time>
      </trkpt>
      <trkpt lat="43.3864" lon="6.67657">
        <ele>47.24</ele>
        <time>2012-05-28T09:43:59Z</time>
      </trkpt>
      <trkpt lat="43.38674" lon="6.67655">
        <ele>44.36</ele>
        <time>2012-05-28T09:44:06Z</time>
      </trkpt>
      <trkpt lat="43.38693" lon="6.67656">
        <ele>40.99</ele>
        <time>2012-05-28T09:44:10Z</time>
      </trkpt>
      <trkpt lat="43.38726" lon="6.67671">
        <ele>36.67</ele>
        <time>2012-05-28T09:44:18Z</time>
      </trkpt>
      <trkpt lat="43.38733" lon="6.67674">
        <ele>35.71</ele>
        <time>2012-05-28T09:44:21Z</time>
      </trkpt>
      <trkpt lat="43.38769" lon="6.67683">
        <ele>34.26</ele>
        <time>2012-05-28T09:44:32Z</time>
      </trkpt>
      <trkpt lat="43.38776" lon="6.67686">
        <ele>32.82</ele>
        <time>2012-05-28T09:44:42Z</time>
      </trkpt>
      <trkpt lat="43.38777" lon="6.67686">
        <ele>32.82</ele>
        <time>2012-05-28T09:45:17Z</time>
      </trkpt>
      <trkpt lat="43.38781" lon="6.67686">
        <ele>32.82</ele>
        <time>2012-05-28T09:46:56Z</time>
      </trkpt>
      <trkpt lat="43.38783" lon="6.67686">
        <ele>33.3</ele>
        <time>2012-05-28T09:47:17Z</time>
      </trkpt>
      <trkpt lat="43.38783" lon="6.67686">
        <ele>32.82</ele>
        <time>2012-05-28T09:47:37Z</time>
      </trkpt>
      <trkpt lat="43.38782" lon="6.67686">
        <ele>33.3</ele>
        <time>2012-05-28T09:49:33Z</time>
      </trkpt>
      <trkpt lat="43.3878" lon="6.67687">
        <ele>32.82</ele>
        <time>2012-05-28T09:50:11Z</time>
      </trkpt>
      <trkpt lat="43.3878" lon="6.67687">
        <ele>33.3</ele>
        <time>2012-05-28T09:51:30Z</time>
      </trkpt>
      <trkpt lat="43.38795" lon="6.67678">
        <ele>32.34</ele>
        <time>2012-05-28T09:53:02Z</time>
      </trkpt>
      <trkpt lat="43.38865" lon="6.6765">
        <ele>29.94</ele>
        <time>2012-05-28T09:53:16Z</time>
      </trkpt>
      <trkpt lat="43.38943" lon="6.67668">
        <ele>26.09</ele>
        <time>2012-05-28T09:53:26Z</time>
      </trkpt>
      <trkpt lat="43.39039" lon="6.67674">
        <ele>23.69</ele>
        <time>2012-05-28T09:53:38Z</time>
      </trkpt>
      <trkpt lat="43.39103" lon="6.67646">
        <ele>25.61</ele>
        <time>2012-05-28T09:53:51Z</time>
      </trkpt>
      <trkpt lat="43.39215" lon="6.67607">
        <ele>26.09</ele>
        <time>2012-05-28T09:54:15Z</time>
      </trkpt>
      <trkpt lat="43.39316" lon="6.67587">
        <ele>27.05</ele>
        <time>2012-05-28T09:54:36Z</time>
      </trkpt>
      <trkpt lat="43.39435" lon="6.67532">
        <ele>28.98</ele>
        <time>2012-05-28T09:55:05Z</time>
      </trkpt>
      <trkpt lat="43.39539" lon="6.67487">
        <ele>26.09</ele>
        <time>2012-05-28T09:55:23Z</time>
      </trkpt>
      <trkpt lat="43.3962" lon="6.6746">
        <ele>22.73</ele>
        <time>2012-05-28T09:55:33Z</time>
      </trkpt>
      <trkpt lat="43.39662" lon="6.67446">
        <ele>21.29</ele>
        <time>2012-05-28T09:55:38Z</time>
      </trkpt>
      <trkpt lat="43.39677" lon="6.67444">
        <ele>20.32</ele>
        <time>2012-05-28T09:55:40Z</time>
      </trkpt>
      <trkpt lat="43.39695" lon="6.67436">
        <ele>19.84</ele>
        <time>2012-05-28T09:55:43Z</time>
      </trkpt>
      <trkpt lat="43.39737" lon="6.67415">
        <ele>18.4</ele>
        <time>2012-05-28T09:55:51Z</time>
      </trkpt>
      <trkpt lat="43.39742" lon="6.67403">
        <ele>18.4</ele>
        <time>2012-05-28T09:55:53Z</time>
      </trkpt>
      <trkpt lat="43.39745" lon="6.6739">
        <ele>17.92</ele>
        <time>2012-05-28T09:55:55Z</time>
      </trkpt>
      <trkpt lat="43.39748" lon="6.67312">
        <ele>17.92</ele>
        <time>2012-05-28T09:56:10Z</time>
      </trkpt>
      <trkpt lat="43.39721" lon="6.67245">
        <ele>18.88</ele>
        <time>2012-05-28T09:56:26Z</time>
      </trkpt>
      <trkpt lat="43.39717" lon="6.67242">
        <ele>18.88</ele>
        <time>2012-05-28T09:56:27Z</time>
      </trkpt>
      <trkpt lat="43.39695" lon="6.67224">
        <ele>19.36</ele>
        <time>2012-05-28T09:56:34Z</time>
      </trkpt>
      <trkpt lat="43.39662" lon="6.67197">
        <ele>18.88</ele>
        <time>2012-05-28T09:56:48Z</time>
      </trkpt>
      <trkpt lat="43.39643" lon="6.67198">
        <ele>18.4</ele>
        <time>2012-05-28T09:56:59Z</time>
      </trkpt>
      <trkpt lat="43.39639" lon="6.67198">
        <ele>17.92</ele>
        <time>2012-05-28T09:57:19Z</time>
      </trkpt>
      <trkpt lat="43.39627" lon="6.67202">
        <ele>17.92</ele>
        <time>2012-05-28T09:57:41Z</time>
      </trkpt>
      <trkpt lat="43.39617" lon="6.6721">
        <ele>18.4</ele>
        <time>2012-05-28T09:57:55Z</time>
      </trkpt>
      <trkpt lat="43.39605" lon="6.67217">
        <ele>17.92</ele>
        <time>2012-05-28T09:58:09Z</time>
      </trkpt>
      <trkpt lat="43.39595" lon="6.67222">
        <ele>17.92</ele>
        <time>2012-05-28T09:58:25Z</time>
      </trkpt>
      <trkpt lat="43.39586" lon="6.67225">
        <ele>17.92</ele>
        <time>2012-05-28T09:58:37Z</time>
      </trkpt>
      <trkpt lat="43.39577" lon="6.67226">
        <ele>17.92</ele>
        <time>2012-05-28T09:58:49Z</time>
      </trkpt>
      <trkpt lat="43.39573" lon="6.67225">
        <ele>17.92</ele>
        <time>2012-05-28T09:58:57Z</time>
      </trkpt>
      <trkpt lat="43.39571" lon="6.67224">
        <ele>17.92</ele>
        <time>2012-05-28T09:58:59Z</time>
      </trkpt>
      <trkpt lat="43.39569" lon="6.67223">
        <ele>17.92</ele>
        <time>2012-05-28T09:59:01Z</time>
      </trkpt>
      <trkpt lat="43.39556" lon="6.67207">
        <ele>17.92</ele>
        <time>2012-05-28T09:59:16Z</time>
      </trkpt>
      <trkpt lat="43.39549" lon="6.67195">
        <ele>17.92</ele>
        <time>2012-05-28T09:59:27Z</time>
      </trkpt>
      <trkpt lat="43.3954" lon="6.67172">
        <ele>17.92</ele>
        <time>2012-05-28T09:59:48Z</time>
      </trkpt>
      <trkpt lat="43.39524" lon="6.67147">
        <ele>18.4</ele>
        <time>2012-05-28T10:00:00Z</time>
      </trkpt>
      <trkpt lat="43.39501" lon="6.67132">
        <ele>18.4</ele>
        <time>2012-05-28T10:00:13Z</time>
      </trkpt>
      <trkpt lat="43.39486" lon="6.67101">
        <ele>17.92</ele>
        <time>2012-05-28T10:00:24Z</time>
      </trkpt>
      <trkpt lat="43.39474" lon="6.67073">
        <ele>19.84</ele>
        <time>2012-05-28T10:00:38Z</time>
      </trkpt>
      <trkpt lat="43.39439" lon="6.6705">
        <ele>20.32</ele>
        <time>2012-05-28T10:00:52Z</time>
      </trkpt>
      <trkpt lat="43.39415" lon="6.67013">
        <ele>20.32</ele>
        <time>2012-05-28T10:01:04Z</time>
      </trkpt>
      <trkpt lat="43.39388" lon="6.6696">
        <ele>20.32</ele>
        <time>2012-05-28T10:01:18Z</time>
      </trkpt>
      <trkpt lat="43.39342" lon="6.66924">
        <ele>20.81</ele>
        <time>2012-05-28T10:01:33Z</time>
      </trkpt>
      <trkpt lat="43.39308" lon="6.66898">
        <ele>20.81</ele>
        <time>2012-05-28T10:01:48Z</time>
      </trkpt>
      <trkpt lat="43.39303" lon="6.66895">
        <ele>20.81</ele>
        <time>2012-05-28T10:01:51Z</time>
      </trkpt>
      <trkpt lat="43.39293" lon="6.66895">
        <ele>20.32</ele>
        <time>2012-05-28T10:01:57Z</time>
      </trkpt>
      <trkpt lat="43.39267" lon="6.66865">
        <ele>17.92</ele>
        <time>2012-05-28T10:02:13Z</time>
      </trkpt>
      <trkpt lat="43.39265" lon="6.66859">
        <ele>17.44</ele>
        <time>2012-05-28T10:02:18Z</time>
      </trkpt>
      <trkpt lat="43.39281" lon="6.66888">
        <ele>18.4</ele>
        <time>2012-05-28T10:02:33Z</time>
      </trkpt>
      <trkpt lat="43.39295" lon="6.66894">
        <ele>19.84</ele>
        <time>2012-05-28T10:02:41Z</time>
      </trkpt>
      <trkpt lat="43.39298" lon="6.66886">
        <ele>20.81</ele>
        <time>2012-05-28T10:02:48Z</time>
      </trkpt>
      <trkpt lat="43.39276" lon="6.66856">
        <ele>21.29</ele>
        <time>2012-05-28T10:03:07Z</time>
      </trkpt>
      <trkpt lat="43.39275" lon="6.66806">
        <ele>21.29</ele>
        <time>2012-05-28T10:03:26Z</time>
      </trkpt>
      <trkpt lat="43.39289" lon="6.66777">
        <ele>21.77</ele>
        <time>2012-05-28T10:03:42Z</time>
      </trkpt>
      <trkpt lat="43.39296" lon="6.66751">
        <ele>23.21</ele>
        <time>2012-05-28T10:03:56Z</time>
      </trkpt>
      <trkpt lat="43.39307" lon="6.66715">
        <ele>25.13</ele>
        <time>2012-05-28T10:04:13Z</time>
      </trkpt>
      <trkpt lat="43.39314" lon="6.66678">
        <ele>28.02</ele>
        <time>2012-05-28T10:04:30Z</time>
      </trkpt>
      <trkpt lat="43.39321" lon="6.66641">
        <ele>30.9</ele>
        <time>2012-05-28T10:04:48Z</time>
      </trkpt>
      <trkpt lat="43.39331" lon="6.66603">
        <ele>32.82</ele>
        <time>2012-05-28T10:05:07Z</time>
      </trkpt>
      <trkpt lat="43.39341" lon="6.66564">
        <ele>33.78</ele>
        <time>2012-05-28T10:05:23Z</time>
      </trkpt>
      <trkpt lat="43.39345" lon="6.66523">
        <ele>36.19</ele>
        <time>2012-05-28T10:05:42Z</time>
      </trkpt>
      <trkpt lat="43.39365" lon="6.66497">
        <ele>37.15</ele>
        <time>2012-05-28T10:05:59Z</time>
      </trkpt>
      <trkpt lat="43.39393" lon="6.66483">
        <ele>39.55</ele>
        <time>2012-05-28T10:06:18Z</time>
      </trkpt>
      <trkpt lat="43.39419" lon="6.66474">
        <ele>40.51</ele>
        <time>2012-05-28T10:06:33Z</time>
      </trkpt>
      <trkpt lat="43.39447" lon="6.66461">
        <ele>42.44</ele>
        <time>2012-05-28T10:06:51Z</time>
      </trkpt>
      <trkpt lat="43.39477" lon="6.6645">
        <ele>45.32</ele>
        <time>2012-05-28T10:07:11Z</time>
      </trkpt>
      <trkpt lat="43.39496" lon="6.66444">
        <ele>47.72</ele>
        <time>2012-05-28T10:07:25Z</time>
      </trkpt>
      <trkpt lat="43.39527" lon="6.66435">
        <ele>50.13</ele>
        <time>2012-05-28T10:07:45Z</time>
      </trkpt>
      <trkpt lat="43.39553" lon="6.66431">
        <ele>52.53</ele>
        <time>2012-05-28T10:08:02Z</time>
      </trkpt>
      <trkpt lat="43.39556" lon="6.66431">
        <ele>53.01</ele>
        <time>2012-05-28T10:08:04Z</time>
      </trkpt>
      <trkpt lat="43.3959" lon="6.66441">
        <ele>53.97</ele>
        <time>2012-05-28T10:08:25Z</time>
      </trkpt>
      <trkpt lat="43.39623" lon="6.66436">
        <ele>55.89</ele>
        <time>2012-05-28T10:08:43Z</time>
      </trkpt>
      <trkpt lat="43.39655" lon="6.66421">
        <ele>57.82</ele>
        <time>2012-05-28T10:09:04Z</time>
      </trkpt>
      <trkpt lat="43.39676" lon="6.66415">
        <ele>61.18</ele>
        <time>2012-05-28T10:09:18Z</time>
      </trkpt>
      <trkpt lat="43.39693" lon="6.66438">
        <ele>62.62</ele>
        <time>2012-05-28T10:09:34Z</time>
      </trkpt>
      <trkpt lat="43.39702" lon="6.6645">
        <ele>63.1</ele>
        <time>2012-05-28T10:09:45Z</time>
      </trkpt>
      <trkpt lat="43.39705" lon="6.66446">
        <ele>63.1</ele>
        <time>2012-05-28T10:09:51Z</time>
      </trkpt>
      <trkpt lat="43.39704" lon="6.66435">
        <ele>63.58</ele>
        <time>2012-05-28T10:09:59Z</time>
      </trkpt>
      <trkpt lat="43.39702" lon="6.66429">
        <ele>64.55</ele>
        <time>2012-05-28T10:10:04Z</time>
      </trkpt>
      <trkpt lat="43.39701" lon="6.66398">
        <ele>65.99</ele>
        <time>2012-05-28T10:10:22Z</time>
      </trkpt>
      <trkpt lat="43.39718" lon="6.66385">
        <ele>67.91</ele>
        <time>2012-05-28T10:10:38Z</time>
      </trkpt>
      <trkpt lat="43.39739" lon="6.66394">
        <ele>69.83</ele>
        <time>2012-05-28T10:10:55Z</time>
      </trkpt>
      <trkpt lat="43.39768" lon="6.66409">
        <ele>72.72</ele>
        <time>2012-05-28T10:11:16Z</time>
      </trkpt>
      <trkpt lat="43.39788" lon="6.6639">
        <ele>75.6</ele>
        <time>2012-05-28T10:11:32Z</time>
      </trkpt>
      <trkpt lat="43.398" lon="6.66353">
        <ele>78</ele>
        <time>2012-05-28T10:11:50Z</time>
      </trkpt>
      <trkpt lat="43.39796" lon="6.66309">
        <ele>78</ele>
        <time>2012-05-28T10:12:05Z</time>
      </trkpt>
      <trkpt lat="43.39767" lon="6.66276">
        <ele>80.41</ele>
        <time>2012-05-28T10:12:25Z</time>
      </trkpt>
      <trkpt lat="43.39766" lon="6.66271">
        <ele>80.89</ele>
        <time>2012-05-28T10:12:27Z</time>
      </trkpt>
      <trkpt lat="43.39773" lon="6.66259">
        <ele>82.81</ele>
        <time>2012-05-28T10:12:34Z</time>
      </trkpt>
      <trkpt lat="43.3979" lon="6.66265">
        <ele>85.69</ele>
        <time>2012-05-28T10:12:46Z</time>
      </trkpt>
      <trkpt lat="43.39792" lon="6.66258">
        <ele>86.18</ele>
        <time>2012-05-28T10:12:50Z</time>
      </trkpt>
      <trkpt lat="43.39775" lon="6.66225">
        <ele>88.58</ele>
        <time>2012-05-28T10:13:08Z</time>
      </trkpt>
      <trkpt lat="43.39771" lon="6.66206">
        <ele>89.54</ele>
        <time>2012-05-28T10:13:16Z</time>
      </trkpt>
      <trkpt lat="43.39793" lon="6.66207">
        <ele>91.94</ele>
        <time>2012-05-28T10:13:30Z</time>
      </trkpt>
      <trkpt lat="43.39812" lon="6.66189">
        <ele>94.35</ele>
        <time>2012-05-28T10:13:45Z</time>
      </trkpt>
      <trkpt lat="43.39825" lon="6.66165">
        <ele>97.23</ele>
        <time>2012-05-28T10:13:59Z</time>
      </trkpt>
      <trkpt lat="43.39843" lon="6.66137">
        <ele>99.15</ele>
        <time>2012-05-28T10:14:16Z</time>
      </trkpt>
      <trkpt lat="43.39868" lon="6.66107">
        <ele>101.56</ele>
        <time>2012-05-28T10:14:38Z</time>
      </trkpt>
      <trkpt lat="43.39885" lon="6.66079">
        <ele>103.48</ele>
        <time>2012-05-28T10:14:55Z</time>
      </trkpt>
      <trkpt lat="43.39895" lon="6.66054">
        <ele>106.84</ele>
        <time>2012-05-28T10:15:10Z</time>
      </trkpt>
      <trkpt lat="43.39901" lon="6.66027">
        <ele>109.73</ele>
        <time>2012-05-28T10:15:24Z</time>
      </trkpt>
      <trkpt lat="43.39911" lon="6.65988">
        <ele>111.65</ele>
        <time>2012-05-28T10:15:44Z</time>
      </trkpt>
      <trkpt lat="43.39915" lon="6.6594">
        <ele>114.05</ele>
        <time>2012-05-28T10:16:05Z</time>
      </trkpt>
      <trkpt lat="43.39914" lon="6.6589">
        <ele>117.42</ele>
        <time>2012-05-28T10:16:27Z</time>
      </trkpt>
      <trkpt lat="43.39907" lon="6.65848">
        <ele>120.3</ele>
        <time>2012-05-28T10:16:47Z</time>
      </trkpt>
      <trkpt lat="43.39922" lon="6.65827">
        <ele>122.71</ele>
        <time>2012-05-28T10:17:02Z</time>
      </trkpt>
      <trkpt lat="43.39944" lon="6.65806">
        <ele>125.11</ele>
        <time>2012-05-28T10:17:22Z</time>
      </trkpt>
      <trkpt lat="43.39971" lon="6.65794">
        <ele>127.51</ele>
        <time>2012-05-28T10:17:42Z</time>
      </trkpt>
      <trkpt lat="43.39993" lon="6.65787">
        <ele>128.95</ele>
        <time>2012-05-28T10:17:56Z</time>
      </trkpt>
      <trkpt lat="43.40013" lon="6.6576">
        <ele>131.36</ele>
        <time>2012-05-28T10:18:15Z</time>
      </trkpt>
      <trkpt lat="43.40026" lon="6.6572">
        <ele>134.24</ele>
        <time>2012-05-28T10:18:35Z</time>
      </trkpt>
      <trkpt lat="43.40034" lon="6.65681">
        <ele>136.16</ele>
        <time>2012-05-28T10:18:55Z</time>
      </trkpt>
      <trkpt lat="43.40033" lon="6.65638">
        <ele>139.53</ele>
        <time>2012-05-28T10:19:18Z</time>
      </trkpt>
      <trkpt lat="43.40027" lon="6.65604">
        <ele>141.93</ele>
        <time>2012-05-28T10:19:36Z</time>
      </trkpt>
      <trkpt lat="43.4002" lon="6.65567">
        <ele>144.82</ele>
        <time>2012-05-28T10:19:55Z</time>
      </trkpt>
      <trkpt lat="43.40014" lon="6.65553">
        <ele>147.22</ele>
        <time>2012-05-28T10:20:07Z</time>
      </trkpt>
      <trkpt lat="43.40016" lon="6.65548">
        <ele>147.22</ele>
        <time>2012-05-28T10:20:21Z</time>
      </trkpt>
      <trkpt lat="43.4001" lon="6.65541">
        <ele>148.18</ele>
        <time>2012-05-28T10:21:25Z</time>
      </trkpt>
      <trkpt lat="43.40005" lon="6.65528">
        <ele>149.14</ele>
        <time>2012-05-28T10:21:44Z</time>
      </trkpt>
      <trkpt lat="43.4" lon="6.65518">
        <ele>149.62</ele>
        <time>2012-05-28T10:22:04Z</time>
      </trkpt>
      <trkpt lat="43.39984" lon="6.65503">
        <ele>151.06</ele>
        <time>2012-05-28T10:22:20Z</time>
      </trkpt>
      <trkpt lat="43.39965" lon="6.65491">
        <ele>152.51</ele>
        <time>2012-05-28T10:22:36Z</time>
      </trkpt>
      <trkpt lat="43.39944" lon="6.65483">
        <ele>154.43</ele>
        <time>2012-05-28T10:22:53Z</time>
      </trkpt>
      <trkpt lat="43.39922" lon="6.65473">
        <ele>156.83</ele>
        <time>2012-05-28T10:23:13Z</time>
      </trkpt>
      <trkpt lat="43.39906" lon="6.65459">
        <ele>158.27</ele>
        <time>2012-05-28T10:23:28Z</time>
      </trkpt>
      <trkpt lat="43.39893" lon="6.65431">
        <ele>160.2</ele>
        <time>2012-05-28T10:23:46Z</time>
      </trkpt>
      <trkpt lat="43.39891" lon="6.65392">
        <ele>161.64</ele>
        <time>2012-05-28T10:24:06Z</time>
      </trkpt>
      <trkpt lat="43.39883" lon="6.65358">
        <ele>164.04</ele>
        <time>2012-05-28T10:24:27Z</time>
      </trkpt>
      <trkpt lat="43.39867" lon="6.65347">
        <ele>165.96</ele>
        <time>2012-05-28T10:24:42Z</time>
      </trkpt>
      <trkpt lat="43.39844" lon="6.65337">
        <ele>167.41</ele>
        <time>2012-05-28T10:25:01Z</time>
      </trkpt>
      <trkpt lat="43.39829" lon="6.65314">
        <ele>168.85</ele>
        <time>2012-05-28T10:25:19Z</time>
      </trkpt>
      <trkpt lat="43.39824" lon="6.65302">
        <ele>169.81</ele>
        <time>2012-05-28T10:25:28Z</time>
      </trkpt>
      <trkpt lat="43.39813" lon="6.65295">
        <ele>170.29</ele>
        <time>2012-05-28T10:25:39Z</time>
      </trkpt>
      <trkpt lat="43.39799" lon="6.65295">
        <ele>171.25</ele>
        <time>2012-05-28T10:25:52Z</time>
      </trkpt>
      <trkpt lat="43.39796" lon="6.65299">
        <ele>171.73</ele>
        <time>2012-05-28T10:25:55Z</time>
      </trkpt>
      <trkpt lat="43.39792" lon="6.65306">
        <ele>172.21</ele>
        <time>2012-05-28T10:26:01Z</time>
      </trkpt>
      <trkpt lat="43.3978" lon="6.65322">
        <ele>172.69</ele>
        <time>2012-05-28T10:26:14Z</time>
      </trkpt>
      <trkpt lat="43.39769" lon="6.65329">
        <ele>172.69</ele>
        <time>2012-05-28T10:26:26Z</time>
      </trkpt>
      <trkpt lat="43.39767" lon="6.65328">
        <ele>171.73</ele>
        <time>2012-05-28T10:26:40Z</time>
      </trkpt>
      <trkpt lat="43.39773" lon="6.65327">
        <ele>172.21</ele>
        <time>2012-05-28T10:27:09Z</time>
      </trkpt>
      <trkpt lat="43.39771" lon="6.65329">
        <ele>172.69</ele>
        <time>2012-05-28T10:27:25Z</time>
      </trkpt>
      <trkpt lat="43.39772" lon="6.65327">
        <ele>172.21</ele>
        <time>2012-05-28T10:27:52Z</time>
      </trkpt>
      <trkpt lat="43.39773" lon="6.65326">
        <ele>172.69</ele>
        <time>2012-05-28T10:28:10Z</time>
      </trkpt>
      <trkpt lat="43.39781" lon="6.65317">
        <ele>172.69</ele>
        <time>2012-05-28T10:28:25Z</time>
      </trkpt>
      <trkpt lat="43.3978" lon="6.65319">
        <ele>172.21</ele>
        <time>2012-05-28T10:28:33Z</time>
      </trkpt>
      <trkpt lat="43.39767" lon="6.65327">
        <ele>172.21</ele>
        <time>2012-05-28T10:28:55Z</time>
      </trkpt>
      <trkpt lat="43.39767" lon="6.65326">
        <ele>172.69</ele>
        <time>2012-05-28T10:29:12Z</time>
      </trkpt>
      <trkpt lat="43.39768" lon="6.65327">
        <ele>172.69</ele>
        <time>2012-05-28T10:29:21Z</time>
      </trkpt>
      <trkpt lat="43.39767" lon="6.65326">
        <ele>172.69</ele>
        <time>2012-05-28T10:29:26Z</time>
      </trkpt>
      <trkpt lat="43.39757" lon="6.65334">
        <ele>173.17</ele>
        <time>2012-05-28T10:29:34Z</time>
      </trkpt>
      <trkpt lat="43.39726" lon="6.65353">
        <ele>175.1</ele>
        <time>2012-05-28T10:29:49Z</time>
      </trkpt>
      <trkpt lat="43.39691" lon="6.65402">
        <ele>177.5</ele>
        <time>2012-05-28T10:30:05Z</time>
      </trkpt>
      <trkpt lat="43.39654" lon="6.65402">
        <ele>180.38</ele>
        <time>2012-05-28T10:30:20Z</time>
      </trkpt>
      <trkpt lat="43.39617" lon="6.65361">
        <ele>181.83</ele>
        <time>2012-05-28T10:30:42Z</time>
      </trkpt>
      <trkpt lat="43.39597" lon="6.65336">
        <ele>181.83</ele>
        <time>2012-05-28T10:30:49Z</time>
      </trkpt>
      <trkpt lat="43.39559" lon="6.65301">
        <ele>181.83</ele>
        <time>2012-05-28T10:30:56Z</time>
      </trkpt>
      <trkpt lat="43.39544" lon="6.65295">
        <ele>181.83</ele>
        <time>2012-05-28T10:30:59Z</time>
      </trkpt>
      <trkpt lat="43.39505" lon="6.65272">
        <ele>184.71</ele>
        <time>2012-05-28T10:31:13Z</time>
      </trkpt>
      <trkpt lat="43.39476" lon="6.65248">
        <ele>187.59</ele>
        <time>2012-05-28T10:31:31Z</time>
      </trkpt>
      <trkpt lat="43.39451" lon="6.65236">
        <ele>189.52</ele>
        <time>2012-05-28T10:31:48Z</time>
      </trkpt>
      <trkpt lat="43.39448" lon="6.65232">
        <ele>189.52</ele>
        <time>2012-05-28T10:32:01Z</time>
      </trkpt>
      <trkpt lat="43.39442" lon="6.65222">
        <ele>189.52</ele>
        <time>2012-05-28T10:32:21Z</time>
      </trkpt>
      <trkpt lat="43.39443" lon="6.65223">
        <ele>190</ele>
        <time>2012-05-28T10:32:35Z</time>
      </trkpt>
      <trkpt lat="43.39445" lon="6.65225">
        <ele>190</ele>
        <time>2012-05-28T10:32:40Z</time>
      </trkpt>
      <trkpt lat="43.39454" lon="6.65236">
        <ele>189.52</ele>
        <time>2012-05-28T10:32:56Z</time>
      </trkpt>
      <trkpt lat="43.39456" lon="6.65238">
        <ele>189.04</ele>
        <time>2012-05-28T10:33:12Z</time>
      </trkpt>
      <trkpt lat="43.39454" lon="6.65236">
        <ele>189.52</ele>
        <time>2012-05-28T10:34:11Z</time>
      </trkpt>
      <trkpt lat="43.3945" lon="6.6523">
        <ele>189.52</ele>
        <time>2012-05-28T10:34:17Z</time>
      </trkpt>
      <trkpt lat="43.39448" lon="6.6522">
        <ele>190</ele>
        <time>2012-05-28T10:34:32Z</time>
      </trkpt>
      <trkpt lat="43.39447" lon="6.65226">
        <ele>190</ele>
        <time>2012-05-28T10:34:59Z</time>
      </trkpt>
      <trkpt lat="43.39448" lon="6.65223">
        <ele>190.48</ele>
        <time>2012-05-28T10:35:10Z</time>
      </trkpt>
      <trkpt lat="43.39447" lon="6.65224">
        <ele>190.48</ele>
        <time>2012-05-28T10:35:23Z</time>
      </trkpt>
      <trkpt lat="43.39447" lon="6.65223">
        <ele>190.48</ele>
        <time>2012-05-28T10:36:20Z</time>
      </trkpt>
      <trkpt lat="43.39448" lon="6.65223">
        <ele>190</ele>
        <time>2012-05-28T10:37:06Z</time>
      </trkpt>
      <trkpt lat="43.39447" lon="6.65227">
        <ele>189.52</ele>
        <time>2012-05-28T10:39:47Z</time>
      </trkpt>
      <trkpt lat="43.39444" lon="6.65227">
        <ele>190</ele>
        <time>2012-05-28T10:40:29Z</time>
      </trkpt>
      <trkpt lat="43.39443" lon="6.65228">
        <ele>190.48</ele>
        <time>2012-05-28T10:45:28Z</time>
      </trkpt>
      <trkpt lat="43.39445" lon="6.65222">
        <ele>190.96</ele>
        <time>2012-05-28T10:46:54Z</time>
      </trkpt>
      <trkpt lat="43.39446" lon="6.65226">
        <ele>190.96</ele>
        <time>2012-05-28T10:48:08Z</time>
      </trkpt>
      <trkpt lat="43.39448" lon="6.65235">
        <ele>190</ele>
        <time>2012-05-28T10:48:27Z</time>
      </trkpt>
      <trkpt lat="43.39448" lon="6.65225">
        <ele>190.48</ele>
        <time>2012-05-28T10:48:50Z</time>
      </trkpt>
      <trkpt lat="43.39445" lon="6.65219">
        <ele>190.96</ele>
        <time>2012-05-28T10:49:08Z</time>
      </trkpt>
      <trkpt lat="43.39445" lon="6.6522">
        <ele>190.48</ele>
        <time>2012-05-28T10:50:00Z</time>
      </trkpt>
      <trkpt lat="43.39433" lon="6.65228">
        <ele>190.48</ele>
        <time>2012-05-28T10:50:18Z</time>
      </trkpt>
      <trkpt lat="43.39437" lon="6.65227">
        <ele>190.96</ele>
        <time>2012-05-28T10:51:19Z</time>
      </trkpt>
      <trkpt lat="43.39443" lon="6.65222">
        <ele>190.96</ele>
        <time>2012-05-28T10:51:32Z</time>
      </trkpt>
      <trkpt lat="43.39445" lon="6.65222">
        <ele>190.48</ele>
        <time>2012-05-28T10:52:25Z</time>
      </trkpt>
      <trkpt lat="43.39452" lon="6.65237">
        <ele>190.48</ele>
        <time>2012-05-28T10:52:48Z</time>
      </trkpt>
      <trkpt lat="43.39462" lon="6.65245">
        <ele>190</ele>
        <time>2012-05-28T10:53:03Z</time>
      </trkpt>
      <trkpt lat="43.39458" lon="6.65241">
        <ele>190</ele>
        <time>2012-05-28T10:53:32Z</time>
      </trkpt>
      <trkpt lat="43.3945" lon="6.65237">
        <ele>190.48</ele>
        <time>2012-05-28T10:53:53Z</time>
      </trkpt>
      <trkpt lat="43.3945" lon="6.65236">
        <ele>190</ele>
        <time>2012-05-28T10:56:25Z</time>
      </trkpt>
      <trkpt lat="43.39445" lon="6.65221">
        <ele>190.96</ele>
        <time>2012-05-28T10:56:45Z</time>
      </trkpt>
      <trkpt lat="43.39448" lon="6.65223">
        <ele>190.48</ele>
        <time>2012-05-28T10:57:20Z</time>
      </trkpt>
      <trkpt lat="43.39449" lon="6.65224">
        <ele>190.96</ele>
        <time>2012-05-28T10:59:18Z</time>
      </trkpt>
      <trkpt lat="43.39456" lon="6.65244">
        <ele>190.48</ele>
        <time>2012-05-28T10:59:36Z</time>
      </trkpt>
      <trkpt lat="43.39456" lon="6.6524">
        <ele>190</ele>
        <time>2012-05-28T11:00:14Z</time>
      </trkpt>
      <trkpt lat="43.39453" lon="6.65234">
        <ele>190</ele>
        <time>2012-05-28T11:00:33Z</time>
      </trkpt>
      <trkpt lat="43.39448" lon="6.65222">
        <ele>190.48</ele>
        <time>2012-05-28T11:00:50Z</time>
      </trkpt>
      <trkpt lat="43.39446" lon="6.65221">
        <ele>190.48</ele>
        <time>2012-05-28T11:01:11Z</time>
      </trkpt>
      <trkpt lat="43.39446" lon="6.65222">
        <ele>190.48</ele>
        <time>2012-05-28T11:08:01Z</time>
      </trkpt>
      <trkpt lat="43.39446" lon="6.65223">
        <ele>190</ele>
        <time>2012-05-28T11:08:25Z</time>
      </trkpt>
      <trkpt lat="43.39442" lon="6.65223">
        <ele>190.48</ele>
        <time>2012-05-28T11:08:40Z</time>
      </trkpt>
      <trkpt lat="43.39442" lon="6.65224">
        <ele>190.48</ele>
        <time>2012-05-28T11:08:41Z</time>
      </trkpt>
      <trkpt lat="43.39439" lon="6.65222">
        <ele>190.48</ele>
        <time>2012-05-28T11:08:50Z</time>
      </trkpt>
      <trkpt lat="43.39439" lon="6.65221">
        <ele>190.48</ele>
        <time>2012-05-28T11:09:04Z</time>
      </trkpt>
      <trkpt lat="43.3944" lon="6.65221">
        <ele>190.48</ele>
        <time>2012-05-28T11:09:06Z</time>
      </trkpt>
      <trkpt lat="43.39442" lon="6.65222">
        <ele>190.48</ele>
        <time>2012-05-28T11:09:23Z</time>
      </trkpt>
      <trkpt lat="43.39439" lon="6.65221">
        <ele>190.48</ele>
        <time>2012-05-28T11:10:37Z</time>
      </trkpt>
      <trkpt lat="43.39438" lon="6.6522">
        <ele>190.48</ele>
        <time>2012-05-28T11:10:51Z</time>
      </trkpt>
      <trkpt lat="43.39441" lon="6.65221">
        <ele>190.48</ele>
        <time>2012-05-28T11:11:18Z</time>
      </trkpt>
      <trkpt lat="43.39441" lon="6.65222">
        <ele>190.48</ele>
        <time>2012-05-28T11:11:41Z</time>
      </trkpt>
      <trkpt lat="43.39442" lon="6.65225">
        <ele>190.48</ele>
        <time>2012-05-28T11:11:55Z</time>
      </trkpt>
      <trkpt lat="43.3944" lon="6.65226">
        <ele>190.48</ele>
        <time>2012-05-28T11:12:09Z</time>
      </trkpt>
      <trkpt lat="43.39438" lon="6.65225">
        <ele>190.48</ele>
        <time>2012-05-28T11:12:25Z</time>
      </trkpt>
      <trkpt lat="43.39436" lon="6.65226">
        <ele>190.96</ele>
        <time>2012-05-28T11:12:35Z</time>
      </trkpt>
      <trkpt lat="43.39425" lon="6.65213">
        <ele>190.48</ele>
        <time>2012-05-28T11:12:44Z</time>
      </trkpt>
      <trkpt lat="43.39403" lon="6.6516">
        <ele>191.44</ele>
        <time>2012-05-28T11:13:02Z</time>
      </trkpt>
      <trkpt lat="43.3941" lon="6.65123">
        <ele>193.36</ele>
        <time>2012-05-28T11:13:19Z</time>
      </trkpt>
      <trkpt lat="43.39428" lon="6.65083">
        <ele>195.77</ele>
        <time>2012-05-28T11:13:40Z</time>
      </trkpt>
      <trkpt lat="43.39452" lon="6.65047">
        <ele>197.21</ele>
        <time>2012-05-28T11:14:00Z</time>
      </trkpt>
      <trkpt lat="43.39488" lon="6.65018">
        <ele>198.17</ele>
        <time>2012-05-28T11:14:16Z</time>
      </trkpt>
      <trkpt lat="43.395" lon="6.64975">
        <ele>197.69</ele>
        <time>2012-05-28T11:14:29Z</time>
      </trkpt>
      <trkpt lat="43.395" lon="6.64946">
        <ele>196.25</ele>
        <time>2012-05-28T11:14:34Z</time>
      </trkpt>
      <trkpt lat="43.39504" lon="6.64916">
        <ele>194.8</ele>
        <time>2012-05-28T11:14:38Z</time>
      </trkpt>
      <trkpt lat="43.39523" lon="6.64878">
        <ele>193.84</ele>
        <time>2012-05-28T11:14:43Z</time>
      </trkpt>
      <trkpt lat="43.39539" lon="6.6486">
        <ele>192.88</ele>
        <time>2012-05-28T11:14:47Z</time>
      </trkpt>
      <trkpt lat="43.3958" lon="6.64837">
        <ele>192.88</ele>
        <time>2012-05-28T11:14:59Z</time>
      </trkpt>
      <trkpt lat="43.39615" lon="6.64827">
        <ele>195.28</ele>
        <time>2012-05-28T11:15:12Z</time>
      </trkpt>
      <trkpt lat="43.39634" lon="6.64786">
        <ele>195.28</ele>
        <time>2012-05-28T11:15:24Z</time>
      </trkpt>
      <trkpt lat="43.39633" lon="6.64761">
        <ele>193.84</ele>
        <time>2012-05-28T11:15:28Z</time>
      </trkpt>
      <trkpt lat="43.3963" lon="6.64749">
        <ele>192.88</ele>
        <time>2012-05-28T11:15:30Z</time>
      </trkpt>
      <trkpt lat="43.39618" lon="6.64727">
        <ele>190.48</ele>
        <time>2012-05-28T11:15:35Z</time>
      </trkpt>
      <trkpt lat="43.39601" lon="6.64727">
        <ele>188.08</ele>
        <time>2012-05-28T11:15:39Z</time>
      </trkpt>
      <trkpt lat="43.39564" lon="6.64746">
        <ele>186.15</ele>
        <time>2012-05-28T11:15:46Z</time>
      </trkpt>
      <trkpt lat="43.39545" lon="6.64744">
        <ele>185.67</ele>
        <time>2012-05-28T11:15:50Z</time>
      </trkpt>
      <trkpt lat="43.395" lon="6.64733">
        <ele>185.67</ele>
        <time>2012-05-28T11:16:03Z</time>
      </trkpt>
      <trkpt lat="43.39488" lon="6.64735">
        <ele>185.67</ele>
        <time>2012-05-28T11:16:06Z</time>
      </trkpt>
      <trkpt lat="43.39443" lon="6.64737">
        <ele>184.23</ele>
        <time>2012-05-28T11:16:19Z</time>
      </trkpt>
      <trkpt lat="43.39407" lon="6.64722">
        <ele>184.23</ele>
        <time>2012-05-28T11:16:33Z</time>
      </trkpt>
      <trkpt lat="43.39377" lon="6.647">
        <ele>186.63</ele>
        <time>2012-05-28T11:16:49Z</time>
      </trkpt>
      <trkpt lat="43.39356" lon="6.64678">
        <ele>189.52</ele>
        <time>2012-05-28T11:17:04Z</time>
      </trkpt>
      <trkpt lat="43.39338" lon="6.64649">
        <ele>192.4</ele>
        <time>2012-05-28T11:17:21Z</time>
      </trkpt>
      <trkpt lat="43.39338" lon="6.64639">
        <ele>193.84</ele>
        <time>2012-05-28T11:17:27Z</time>
      </trkpt>
      <trkpt lat="43.39338" lon="6.64627">
        <ele>194.32</ele>
        <time>2012-05-28T11:17:47Z</time>
      </trkpt>
      <trkpt lat="43.39342" lon="6.64628">
        <ele>194.32</ele>
        <time>2012-05-28T11:18:19Z</time>
      </trkpt>
      <trkpt lat="43.39343" lon="6.64629">
        <ele>194.32</ele>
        <time>2012-05-28T11:22:35Z</time>
      </trkpt>
      <trkpt lat="43.39342" lon="6.64625">
        <ele>194.8</ele>
        <time>2012-05-28T11:23:16Z</time>
      </trkpt>
      <trkpt lat="43.39326" lon="6.64598">
        <ele>195.28</ele>
        <time>2012-05-28T11:23:30Z</time>
      </trkpt>
      <trkpt lat="43.39296" lon="6.64582">
        <ele>192.88</ele>
        <time>2012-05-28T11:23:43Z</time>
      </trkpt>
      <trkpt lat="43.39286" lon="6.6458">
        <ele>191.92</ele>
        <time>2012-05-28T11:23:46Z</time>
      </trkpt>
      <trkpt lat="43.39269" lon="6.64577">
        <ele>190.48</ele>
        <time>2012-05-28T11:23:50Z</time>
      </trkpt>
      <trkpt lat="43.3925" lon="6.6458">
        <ele>189.52</ele>
        <time>2012-05-28T11:23:54Z</time>
      </trkpt>
      <trkpt lat="43.39223" lon="6.64594">
        <ele>188.56</ele>
        <time>2012-05-28T11:24:01Z</time>
      </trkpt>
      <trkpt lat="43.39184" lon="6.64606">
        <ele>185.19</ele>
        <time>2012-05-28T11:24:11Z</time>
      </trkpt>
      <trkpt lat="43.39173" lon="6.64609">
        <ele>183.75</ele>
        <time>2012-05-28T11:24:13Z</time>
      </trkpt>
      <trkpt lat="43.3914" lon="6.64611">
        <ele>182.31</ele>
        <time>2012-05-28T11:24:17Z</time>
      </trkpt>
      <trkpt lat="43.39117" lon="6.64608">
        <ele>180.38</ele>
        <time>2012-05-28T11:24:22Z</time>
      </trkpt>
      <trkpt lat="43.39087" lon="6.64613">
        <ele>177.02</ele>
        <time>2012-05-28T11:24:29Z</time>
      </trkpt>
      <trkpt lat="43.39052" lon="6.64621">
        <ele>174.14</ele>
        <time>2012-05-28T11:24:34Z</time>
      </trkpt>
      <trkpt lat="43.39041" lon="6.64624">
        <ele>173.17</ele>
        <time>2012-05-28T11:24:36Z</time>
      </trkpt>
      <trkpt lat="43.39013" lon="6.64647">
        <ele>168.85</ele>
        <time>2012-05-28T11:24:43Z</time>
      </trkpt>
      <trkpt lat="43.39008" lon="6.64652">
        <ele>168.85</ele>
        <time>2012-05-28T11:24:44Z</time>
      </trkpt>
      <trkpt lat="43.39004" lon="6.64657">
        <ele>168.37</ele>
        <time>2012-05-28T11:24:45Z</time>
      </trkpt>
      <trkpt lat="43.38993" lon="6.64675">
        <ele>166.45</ele>
        <time>2012-05-28T11:24:49Z</time>
      </trkpt>
      <trkpt lat="43.38972" lon="6.64696">
        <ele>163.56</ele>
        <time>2012-05-28T11:24:54Z</time>
      </trkpt>
      <trkpt lat="43.38944" lon="6.64711">
        <ele>160.2</ele>
        <time>2012-05-28T11:24:58Z</time>
      </trkpt>
      <trkpt lat="43.38893" lon="6.64738">
        <ele>156.83</ele>
        <time>2012-05-28T11:25:07Z</time>
      </trkpt>
      <trkpt lat="43.3887" lon="6.64754">
        <ele>154.43</ele>
        <time>2012-05-28T11:25:11Z</time>
      </trkpt>
      <trkpt lat="43.3885" lon="6.64754">
        <ele>152.99</ele>
        <time>2012-05-28T11:25:16Z</time>
      </trkpt>
      <trkpt lat="43.3883" lon="6.64744">
        <ele>150.1</ele>
        <time>2012-05-28T11:25:20Z</time>
      </trkpt>
      <trkpt lat="43.38812" lon="6.64739">
        <ele>148.66</ele>
        <time>2012-05-28T11:25:23Z</time>
      </trkpt>
      <trkpt lat="43.38807" lon="6.6474">
        <ele>148.18</ele>
        <time>2012-05-28T11:25:24Z</time>
      </trkpt>
      <trkpt lat="43.38792" lon="6.64743">
        <ele>146.26</ele>
        <time>2012-05-28T11:25:28Z</time>
      </trkpt>
      <trkpt lat="43.38773" lon="6.64748">
        <ele>142.89</ele>
        <time>2012-05-28T11:25:41Z</time>
      </trkpt>
      <trkpt lat="43.3876" lon="6.64763">
        <ele>140.01</ele>
        <time>2012-05-28T11:25:53Z</time>
      </trkpt>
      <trkpt lat="43.38761" lon="6.6476">
        <ele>140.01</ele>
        <time>2012-05-28T11:26:13Z</time>
      </trkpt>
      <trkpt lat="43.38757" lon="6.64754">
        <ele>140.01</ele>
        <time>2012-05-28T11:26:33Z</time>
      </trkpt>
      <trkpt lat="43.38755" lon="6.64755">
        <ele>140.01</ele>
        <time>2012-05-28T11:26:57Z</time>
      </trkpt>
      <trkpt lat="43.38753" lon="6.64753">
        <ele>140.01</ele>
        <time>2012-05-28T11:27:28Z</time>
      </trkpt>
      <trkpt lat="43.3876" lon="6.64768">
        <ele>140.49</ele>
        <time>2012-05-28T11:27:41Z</time>
      </trkpt>
      <trkpt lat="43.38759" lon="6.64799">
        <ele>139.05</ele>
        <time>2012-05-28T11:27:48Z</time>
      </trkpt>
      <trkpt lat="43.3875" lon="6.64824">
        <ele>138.57</ele>
        <time>2012-05-28T11:27:53Z</time>
      </trkpt>
      <trkpt lat="43.38741" lon="6.64832">
        <ele>137.13</ele>
        <time>2012-05-28T11:28:04Z</time>
      </trkpt>
      <trkpt lat="43.38736" lon="6.64837">
        <ele>137.13</ele>
        <time>2012-05-28T11:28:25Z</time>
      </trkpt>
      <trkpt lat="43.38695" lon="6.64852">
        <ele>134.72</ele>
        <time>2012-05-28T11:28:35Z</time>
      </trkpt>
      <trkpt lat="43.38669" lon="6.64854">
        <ele>131.84</ele>
        <time>2012-05-28T11:28:39Z</time>
      </trkpt>
      <trkpt lat="43.38615" lon="6.64883">
        <ele>128.47</ele>
        <time>2012-05-28T11:28:48Z</time>
      </trkpt>
      <trkpt lat="43.38591" lon="6.64905">
        <ele>124.63</ele>
        <time>2012-05-28T11:28:56Z</time>
      </trkpt>
      <trkpt lat="43.38584" lon="6.64925">
        <ele>121.74</ele>
        <time>2012-05-28T11:29:03Z</time>
      </trkpt>
      <trkpt lat="43.38585" lon="6.64973">
        <ele>117.9</ele>
        <time>2012-05-28T11:29:10Z</time>
      </trkpt>
      <trkpt lat="43.38585" lon="6.64981">
        <ele>117.42</ele>
        <time>2012-05-28T11:29:11Z</time>
      </trkpt>
      <trkpt lat="43.38585" lon="6.64996">
        <ele>116.46</ele>
        <time>2012-05-28T11:29:13Z</time>
      </trkpt>
      <trkpt lat="43.38588" lon="6.6503">
        <ele>112.61</ele>
        <time>2012-05-28T11:29:17Z</time>
      </trkpt>
      <trkpt lat="43.38588" lon="6.65052">
        <ele>110.21</ele>
        <time>2012-05-28T11:29:20Z</time>
      </trkpt>
      <trkpt lat="43.38582" lon="6.65078">
        <ele>107.81</ele>
        <time>2012-05-28T11:29:24Z</time>
      </trkpt>
      <trkpt lat="43.38566" lon="6.65093">
        <ele>105.88</ele>
        <time>2012-05-28T11:29:27Z</time>
      </trkpt>
      <trkpt lat="43.38532" lon="6.65142">
        <ele>102.04</ele>
        <time>2012-05-28T11:29:37Z</time>
      </trkpt>
      <trkpt lat="43.38495" lon="6.65189">
        <ele>98.67</ele>
        <time>2012-05-28T11:29:47Z</time>
      </trkpt>
      <trkpt lat="43.3849" lon="6.65237">
        <ele>95.31</ele>
        <time>2012-05-28T11:29:57Z</time>
      </trkpt>
      <trkpt lat="43.3849" lon="6.65268">
        <ele>91.94</ele>
        <time>2012-05-28T11:30:05Z</time>
      </trkpt>
      <trkpt lat="43.38483" lon="6.65298">
        <ele>89.06</ele>
        <time>2012-05-28T11:30:14Z</time>
      </trkpt>
      <trkpt lat="43.38484" lon="6.6532">
        <ele>85.69</ele>
        <time>2012-05-28T11:30:22Z</time>
      </trkpt>
      <trkpt lat="43.38485" lon="6.65345">
        <ele>82.81</ele>
        <time>2012-05-28T11:30:28Z</time>
      </trkpt>
      <trkpt lat="43.38499" lon="6.6537">
        <ele>78.97</ele>
        <time>2012-05-28T11:30:37Z</time>
      </trkpt>
      <trkpt lat="43.38505" lon="6.65376">
        <ele>78.48</ele>
        <time>2012-05-28T11:30:39Z</time>
      </trkpt>
      <trkpt lat="43.38519" lon="6.654">
        <ele>75.12</ele>
        <time>2012-05-28T11:30:45Z</time>
      </trkpt>
      <trkpt lat="43.38518" lon="6.65402">
        <ele>74.16</ele>
        <time>2012-05-28T11:30:54Z</time>
      </trkpt>
      <trkpt lat="43.38519" lon="6.65402">
        <ele>73.68</ele>
        <time>2012-05-28T11:31:11Z</time>
      </trkpt>
      <trkpt lat="43.3852" lon="6.65405">
        <ele>73.68</ele>
        <time>2012-05-28T11:31:25Z</time>
      </trkpt>
      <trkpt lat="43.38521" lon="6.65407">
        <ele>73.2</ele>
        <time>2012-05-28T11:33:19Z</time>
      </trkpt>
      <trkpt lat="43.38523" lon="6.65425">
        <ele>73.2</ele>
        <time>2012-05-28T11:33:26Z</time>
      </trkpt>
      <trkpt lat="43.38502" lon="6.65451">
        <ele>74.64</ele>
        <time>2012-05-28T11:33:43Z</time>
      </trkpt>
      <trkpt lat="43.38471" lon="6.65487">
        <ele>72.24</ele>
        <time>2012-05-28T11:33:53Z</time>
      </trkpt>
      <trkpt lat="43.38458" lon="6.65513">
        <ele>70.31</ele>
        <time>2012-05-28T11:34:00Z</time>
      </trkpt>
      <trkpt lat="43.38489" lon="6.65519">
        <ele>68.87</ele>
        <time>2012-05-28T11:34:12Z</time>
      </trkpt>
      <trkpt lat="43.3851" lon="6.65512">
        <ele>66.47</ele>
        <time>2012-05-28T11:34:19Z</time>
      </trkpt>
      <trkpt lat="43.38517" lon="6.65528">
        <ele>65.51</ele>
        <time>2012-05-28T11:34:26Z</time>
      </trkpt>
      <trkpt lat="43.38497" lon="6.65562">
        <ele>65.99</ele>
        <time>2012-05-28T11:34:43Z</time>
      </trkpt>
      <trkpt lat="43.38495" lon="6.65609">
        <ele>67.91</ele>
        <time>2012-05-28T11:35:02Z</time>
      </trkpt>
      <trkpt lat="43.38491" lon="6.6565">
        <ele>69.35</ele>
        <time>2012-05-28T11:35:20Z</time>
      </trkpt>
      <trkpt lat="43.3847" lon="6.65697">
        <ele>69.35</ele>
        <time>2012-05-28T11:35:38Z</time>
      </trkpt>
      <trkpt lat="43.38451" lon="6.65724">
        <ele>70.79</ele>
        <time>2012-05-28T11:35:52Z</time>
      </trkpt>
      <trkpt lat="43.38441" lon="6.65769">
        <ele>72.24</ele>
        <time>2012-05-28T11:36:10Z</time>
      </trkpt>
      <trkpt lat="43.38442" lon="6.65809">
        <ele>74.16</ele>
        <time>2012-05-28T11:36:29Z</time>
      </trkpt>
      <trkpt lat="43.38443" lon="6.6581">
        <ele>74.64</ele>
        <time>2012-05-28T11:36:30Z</time>
      </trkpt>
      <trkpt lat="43.38448" lon="6.65813">
        <ele>75.12</ele>
        <time>2012-05-28T11:36:48Z</time>
      </trkpt>
      <trkpt lat="43.38461" lon="6.65811">
        <ele>75.12</ele>
        <time>2012-05-28T11:38:48Z</time>
      </trkpt>
      <trkpt lat="43.38495" lon="6.65821">
        <ele>75.12</ele>
        <time>2012-05-28T11:39:05Z</time>
      </trkpt>
      <trkpt lat="43.38518" lon="6.65839">
        <ele>74.16</ele>
        <time>2012-05-28T11:39:14Z</time>
      </trkpt>
      <trkpt lat="43.38515" lon="6.65849">
        <ele>75.12</ele>
        <time>2012-05-28T11:39:18Z</time>
      </trkpt>
      <trkpt lat="43.38486" lon="6.65872">
        <ele>77.52</ele>
        <time>2012-05-28T11:39:35Z</time>
      </trkpt>
      <trkpt lat="43.38487" lon="6.65914">
        <ele>78.48</ele>
        <time>2012-05-28T11:39:51Z</time>
      </trkpt>
      <trkpt lat="43.38498" lon="6.65962">
        <ele>79.93</ele>
        <time>2012-05-28T11:40:10Z</time>
      </trkpt>
      <trkpt lat="43.38524" lon="6.65998">
        <ele>81.37</ele>
        <time>2012-05-28T11:40:31Z</time>
      </trkpt>
      <trkpt lat="43.38558" lon="6.66031">
        <ele>82.81</ele>
        <time>2012-05-28T11:40:50Z</time>
      </trkpt>
      <trkpt lat="43.38561" lon="6.66034">
        <ele>82.33</ele>
        <time>2012-05-28T11:40:51Z</time>
      </trkpt>
      <trkpt lat="43.38572" lon="6.66065">
        <ele>81.85</ele>
        <time>2012-05-28T11:40:58Z</time>
      </trkpt>
      <trkpt lat="43.38559" lon="6.66109">
        <ele>83.29</ele>
        <time>2012-05-28T11:41:11Z</time>
      </trkpt>
      <trkpt lat="43.38569" lon="6.66149">
        <ele>82.81</ele>
        <time>2012-05-28T11:41:22Z</time>
      </trkpt>
      <trkpt lat="43.38594" lon="6.6619">
        <ele>84.73</ele>
        <time>2012-05-28T11:41:39Z</time>
      </trkpt>
      <trkpt lat="43.38641" lon="6.66194">
        <ele>85.69</ele>
        <time>2012-05-28T11:41:57Z</time>
      </trkpt>
      <trkpt lat="43.38668" lon="6.66148">
        <ele>83.77</ele>
        <time>2012-05-28T11:42:08Z</time>
      </trkpt>
      <trkpt lat="43.38691" lon="6.66091">
        <ele>82.33</ele>
        <time>2012-05-28T11:42:15Z</time>
      </trkpt>
      <trkpt lat="43.38725" lon="6.66035">
        <ele>80.41</ele>
        <time>2012-05-28T11:42:25Z</time>
      </trkpt>
      <trkpt lat="43.38766" lon="6.65981">
        <ele>78.48</ele>
        <time>2012-05-28T11:42:37Z</time>
      </trkpt>
      <trkpt lat="43.38775" lon="6.65951">
        <ele>79.45</ele>
        <time>2012-05-28T11:42:47Z</time>
      </trkpt>
      <trkpt lat="43.38792" lon="6.65916">
        <ele>82.81</ele>
        <time>2012-05-28T11:43:03Z</time>
      </trkpt>
      <trkpt lat="43.38823" lon="6.65908">
        <ele>83.77</ele>
        <time>2012-05-28T11:43:20Z</time>
      </trkpt>
      <trkpt lat="43.38863" lon="6.65913">
        <ele>83.29</ele>
        <time>2012-05-28T11:43:32Z</time>
      </trkpt>
      <trkpt lat="43.38878" lon="6.65922">
        <ele>83.77</ele>
        <time>2012-05-28T11:43:38Z</time>
      </trkpt>
      <trkpt lat="43.38904" lon="6.65947">
        <ele>82.81</ele>
        <time>2012-05-28T11:43:51Z</time>
      </trkpt>
      <trkpt lat="43.38906" lon="6.65946">
        <ele>82.33</ele>
        <time>2012-05-28T11:44:04Z</time>
      </trkpt>
      <trkpt lat="43.38929" lon="6.65965">
        <ele>82.33</ele>
        <time>2012-05-28T11:44:17Z</time>
      </trkpt>
      <trkpt lat="43.38949" lon="6.65989">
        <ele>80.89</ele>
        <time>2012-05-28T11:44:23Z</time>
      </trkpt>
      <trkpt lat="43.39001" lon="6.66016">
        <ele>78</ele>
        <time>2012-05-28T11:44:35Z</time>
      </trkpt>
      <trkpt lat="43.39015" lon="6.66026">
        <ele>78</ele>
        <time>2012-05-28T11:44:39Z</time>
      </trkpt>
      <trkpt lat="43.3902" lon="6.66046">
        <ele>77.52</ele>
        <time>2012-05-28T11:44:43Z</time>
      </trkpt>
      <trkpt lat="43.39016" lon="6.6614">
        <ele>76.56</ele>
        <time>2012-05-28T11:45:00Z</time>
      </trkpt>
      <trkpt lat="43.39019" lon="6.66203">
        <ele>74.16</ele>
        <time>2012-05-28T11:45:13Z</time>
      </trkpt>
      <trkpt lat="43.39024" lon="6.66212">
        <ele>72.72</ele>
        <time>2012-05-28T11:45:15Z</time>
      </trkpt>
      <trkpt lat="43.39039" lon="6.66224">
        <ele>71.27</ele>
        <time>2012-05-28T11:45:19Z</time>
      </trkpt>
      <trkpt lat="43.3905" lon="6.66226">
        <ele>69.83</ele>
        <time>2012-05-28T11:45:21Z</time>
      </trkpt>
      <trkpt lat="43.3906" lon="6.6623">
        <ele>68.39</ele>
        <time>2012-05-28T11:45:23Z</time>
      </trkpt>
      <trkpt lat="43.39074" lon="6.66243">
        <ele>66.47</ele>
        <time>2012-05-28T11:45:26Z</time>
      </trkpt>
      <trkpt lat="43.39116" lon="6.66301">
        <ele>63.58</ele>
        <time>2012-05-28T11:45:36Z</time>
      </trkpt>
      <trkpt lat="43.39171" lon="6.66334">
        <ele>60.22</ele>
        <time>2012-05-28T11:45:45Z</time>
      </trkpt>
      <trkpt lat="43.39185" lon="6.66342">
        <ele>59.26</ele>
        <time>2012-05-28T11:45:47Z</time>
      </trkpt>
      <trkpt lat="43.39204" lon="6.66363">
        <ele>59.74</ele>
        <time>2012-05-28T11:45:51Z</time>
      </trkpt>
      <trkpt lat="43.39235" lon="6.66447">
        <ele>57.82</ele>
        <time>2012-05-28T11:46:05Z</time>
      </trkpt>
      <trkpt lat="43.39255" lon="6.66482">
        <ele>57.34</ele>
        <time>2012-05-28T11:46:15Z</time>
      </trkpt>
      <trkpt lat="43.39255" lon="6.6651">
        <ele>56.86</ele>
        <time>2012-05-28T11:46:27Z</time>
      </trkpt>
      <trkpt lat="43.39253" lon="6.66535">
        <ele>54.45</ele>
        <time>2012-05-28T11:46:41Z</time>
      </trkpt>
      <trkpt lat="43.39253" lon="6.66535">
        <ele>54.45</ele>
        <time>2012-05-28T11:46:57Z</time>
      </trkpt>
      <trkpt lat="43.39253" lon="6.66534">
        <ele>54.45</ele>
        <time>2012-05-28T11:47:02Z</time>
      </trkpt>
      <trkpt lat="43.39254" lon="6.665">
        <ele>56.37</ele>
        <time>2012-05-28T11:47:16Z</time>
      </trkpt>
      <trkpt lat="43.3925" lon="6.66471">
        <ele>57.34</ele>
        <time>2012-05-28T11:47:30Z</time>
      </trkpt>
      <trkpt lat="43.39248" lon="6.66468">
        <ele>56.86</ele>
        <time>2012-05-28T11:47:32Z</time>
      </trkpt>
      <trkpt lat="43.39257" lon="6.6646">
        <ele>55.89</ele>
        <time>2012-05-28T11:47:40Z</time>
      </trkpt>
      <trkpt lat="43.39281" lon="6.6647">
        <ele>52.05</ele>
        <time>2012-05-28T11:47:49Z</time>
      </trkpt>
      <trkpt lat="43.39282" lon="6.66471">
        <ele>52.05</ele>
        <time>2012-05-28T11:47:50Z</time>
      </trkpt>
      <trkpt lat="43.39289" lon="6.66491">
        <ele>48.68</ele>
        <time>2012-05-28T11:48:00Z</time>
      </trkpt>
      <trkpt lat="43.3929" lon="6.66512">
        <ele>46.76</ele>
        <time>2012-05-28T11:48:05Z</time>
      </trkpt>
      <trkpt lat="43.39291" lon="6.66527">
        <ele>45.32</ele>
        <time>2012-05-28T11:48:08Z</time>
      </trkpt>
      <trkpt lat="43.39293" lon="6.66545">
        <ele>42.44</ele>
        <time>2012-05-28T11:48:12Z</time>
      </trkpt>
      <trkpt lat="43.39294" lon="6.66557">
        <ele>40.51</ele>
        <time>2012-05-28T11:48:16Z</time>
      </trkpt>
      <trkpt lat="43.39291" lon="6.66578">
        <ele>37.15</ele>
        <time>2012-05-28T11:48:22Z</time>
      </trkpt>
      <trkpt lat="43.39279" lon="6.66616">
        <ele>35.23</ele>
        <time>2012-05-28T11:48:32Z</time>
      </trkpt>
      <trkpt lat="43.39263" lon="6.66658">
        <ele>34.74</ele>
        <time>2012-05-28T11:48:47Z</time>
      </trkpt>
      <trkpt lat="43.39262" lon="6.6666">
        <ele>34.74</ele>
        <time>2012-05-28T11:48:48Z</time>
      </trkpt>
      <trkpt lat="43.39261" lon="6.66664">
        <ele>34.74</ele>
        <time>2012-05-28T11:48:50Z</time>
      </trkpt>
      <trkpt lat="43.39265" lon="6.66661">
        <ele>34.74</ele>
        <time>2012-05-28T11:49:03Z</time>
      </trkpt>
      <trkpt lat="43.39267" lon="6.66663">
        <ele>34.74</ele>
        <time>2012-05-28T11:49:26Z</time>
      </trkpt>
      <trkpt lat="43.3928" lon="6.66698">
        <ele>31.86</ele>
        <time>2012-05-28T11:49:38Z</time>
      </trkpt>
      <trkpt lat="43.3928" lon="6.66702">
        <ele>31.86</ele>
        <time>2012-05-28T11:49:39Z</time>
      </trkpt>
      <trkpt lat="43.39281" lon="6.66708">
        <ele>30.9</ele>
        <time>2012-05-28T11:49:40Z</time>
      </trkpt>
      <trkpt lat="43.39272" lon="6.66741">
        <ele>27.05</ele>
        <time>2012-05-28T11:49:45Z</time>
      </trkpt>
      <trkpt lat="43.39268" lon="6.6675">
        <ele>27.05</ele>
        <time>2012-05-28T11:49:46Z</time>
      </trkpt>
      <trkpt lat="43.39258" lon="6.66775">
        <ele>25.61</ele>
        <time>2012-05-28T11:49:49Z</time>
      </trkpt>
      <trkpt lat="43.39242" lon="6.66806">
        <ele>24.65</ele>
        <time>2012-05-28T11:49:54Z</time>
      </trkpt>
      <trkpt lat="43.39247" lon="6.66826">
        <ele>23.21</ele>
        <time>2012-05-28T11:49:59Z</time>
      </trkpt>
      <trkpt lat="43.39261" lon="6.66857">
        <ele>19.84</ele>
        <time>2012-05-28T11:50:05Z</time>
      </trkpt>
      <trkpt lat="43.39287" lon="6.66893">
        <ele>21.29</ele>
        <time>2012-05-28T11:50:19Z</time>
      </trkpt>
      <trkpt lat="43.39317" lon="6.66903">
        <ele>22.73</ele>
        <time>2012-05-28T11:50:35Z</time>
      </trkpt>
      <trkpt lat="43.39352" lon="6.66932">
        <ele>22.73</ele>
        <time>2012-05-28T11:50:49Z</time>
      </trkpt>
      <trkpt lat="43.39395" lon="6.66971">
        <ele>22.73</ele>
        <time>2012-05-28T11:51:05Z</time>
      </trkpt>
      <trkpt lat="43.39417" lon="6.67021">
        <ele>22.73</ele>
        <time>2012-05-28T11:51:18Z</time>
      </trkpt>
      <trkpt lat="43.39421" lon="6.67028">
        <ele>22.73</ele>
        <time>2012-05-28T11:51:20Z</time>
      </trkpt>
      <trkpt lat="43.39443" lon="6.67055">
        <ele>22.73</ele>
        <time>2012-05-28T11:51:31Z</time>
      </trkpt>
      <trkpt lat="43.39477" lon="6.67076">
        <ele>22.25</ele>
        <time>2012-05-28T11:51:46Z</time>
      </trkpt>
      <trkpt lat="43.39485" lon="6.67103">
        <ele>21.29</ele>
        <time>2012-05-28T11:51:56Z</time>
      </trkpt>
      <trkpt lat="43.39497" lon="6.6712">
        <ele>20.32</ele>
        <time>2012-05-28T11:52:00Z</time>
      </trkpt>
      <trkpt lat="43.39518" lon="6.67146">
        <ele>19.84</ele>
        <time>2012-05-28T11:52:10Z</time>
      </trkpt>
      <trkpt lat="43.39541" lon="6.67171">
        <ele>20.32</ele>
        <time>2012-05-28T11:52:22Z</time>
      </trkpt>
      <trkpt lat="43.39549" lon="6.67187">
        <ele>19.84</ele>
        <time>2012-05-28T11:52:34Z</time>
      </trkpt>
      <trkpt lat="43.39577" lon="6.67225">
        <ele>19.84</ele>
        <time>2012-05-28T11:52:52Z</time>
      </trkpt>
      <trkpt lat="43.39593" lon="6.6722">
        <ele>19.36</ele>
        <time>2012-05-28T11:53:05Z</time>
      </trkpt>
      <trkpt lat="43.39599" lon="6.67218">
        <ele>19.84</ele>
        <time>2012-05-28T11:53:24Z</time>
      </trkpt>
      <trkpt lat="43.3961" lon="6.67214">
        <ele>19.84</ele>
        <time>2012-05-28T11:53:31Z</time>
      </trkpt>
      <trkpt lat="43.39618" lon="6.67208">
        <ele>19.84</ele>
        <time>2012-05-28T11:53:36Z</time>
      </trkpt>
      <trkpt lat="43.39637" lon="6.67199">
        <ele>19.84</ele>
        <time>2012-05-28T11:53:45Z</time>
      </trkpt>
      <trkpt lat="43.39678" lon="6.67205">
        <ele>20.32</ele>
        <time>2012-05-28T11:54:00Z</time>
      </trkpt>
      <trkpt lat="43.3969" lon="6.67223">
        <ele>20.81</ele>
        <time>2012-05-28T11:54:11Z</time>
      </trkpt>
      <trkpt lat="43.3969" lon="6.67223">
        <ele>21.29</ele>
        <time>2012-05-28T11:54:30Z</time>
      </trkpt>
      <trkpt lat="43.39718" lon="6.67245">
        <ele>20.81</ele>
        <time>2012-05-28T11:54:45Z</time>
      </trkpt>
      <trkpt lat="43.39742" lon="6.67288">
        <ele>20.32</ele>
        <time>2012-05-28T11:54:55Z</time>
      </trkpt>
      <trkpt lat="43.39748" lon="6.67326">
        <ele>19.84</ele>
        <time>2012-05-28T11:55:02Z</time>
      </trkpt>
      <trkpt lat="43.39748" lon="6.67362">
        <ele>19.36</ele>
        <time>2012-05-28T11:55:08Z</time>
      </trkpt>
      <trkpt lat="43.3973" lon="6.67419">
        <ele>19.84</ele>
        <time>2012-05-28T11:55:22Z</time>
      </trkpt>
      <trkpt lat="43.39698" lon="6.67427">
        <ele>20.32</ele>
        <time>2012-05-28T11:55:33Z</time>
      </trkpt>
      <trkpt lat="43.39692" lon="6.67432">
        <ele>21.29</ele>
        <time>2012-05-28T11:55:44Z</time>
      </trkpt>
      <trkpt lat="43.39691" lon="6.67434">
        <ele>21.29</ele>
        <time>2012-05-28T11:56:02Z</time>
      </trkpt>
      <trkpt lat="43.39691" lon="6.67433">
        <ele>21.29</ele>
        <time>2012-05-28T11:57:26Z</time>
      </trkpt>
      <trkpt lat="43.39691" lon="6.67433">
        <ele>20.81</ele>
        <time>2012-05-28T11:58:24Z</time>
      </trkpt>
      <trkpt lat="43.39677" lon="6.67443">
        <ele>21.29</ele>
        <time>2012-05-28T11:59:13Z</time>
      </trkpt>
      <trkpt lat="43.39615" lon="6.67456">
        <ele>22.73</ele>
        <time>2012-05-28T11:59:33Z</time>
      </trkpt>
      <trkpt lat="43.39544" lon="6.6748">
        <ele>25.61</ele>
        <time>2012-05-28T11:59:58Z</time>
      </trkpt>
      <trkpt lat="43.395" lon="6.67499">
        <ele>28.5</ele>
        <time>2012-05-28T12:00:16Z</time>
      </trkpt>
      <trkpt lat="43.39426" lon="6.67531">
        <ele>30.9</ele>
        <time>2012-05-28T12:00:43Z</time>
      </trkpt>
      <trkpt lat="43.39331" lon="6.67574">
        <ele>29.94</ele>
        <time>2012-05-28T12:01:07Z</time>
      </trkpt>
      <trkpt lat="43.39252" lon="6.676">
        <ele>27.05</ele>
        <time>2012-05-28T12:01:19Z</time>
      </trkpt>
      <trkpt lat="43.39141" lon="6.6762">
        <ele>27.53</ele>
        <time>2012-05-28T12:01:37Z</time>
      </trkpt>
      <trkpt lat="43.39012" lon="6.67673">
        <ele>25.13</ele>
        <time>2012-05-28T12:01:58Z</time>
      </trkpt>
      <trkpt lat="43.38934" lon="6.67662">
        <ele>27.05</ele>
        <time>2012-05-28T12:02:11Z</time>
      </trkpt>
      <trkpt lat="43.3888" lon="6.67647">
        <ele>29.94</ele>
        <time>2012-05-28T12:02:26Z</time>
      </trkpt>
      <trkpt lat="43.38814" lon="6.67666">
        <ele>32.82</ele>
        <time>2012-05-28T12:02:48Z</time>
      </trkpt>
      <trkpt lat="43.38745" lon="6.67668">
        <ele>35.23</ele>
        <time>2012-05-28T12:03:09Z</time>
      </trkpt>
      <trkpt lat="43.38666" lon="6.67627">
        <ele>36.67</ele>
        <time>2012-05-28T12:03:34Z</time>
      </trkpt>
      <trkpt lat="43.38588" lon="6.67611">
        <ele>39.55</ele>
        <time>2012-05-28T12:03:57Z</time>
      </trkpt>
      <trkpt lat="43.3852" lon="6.6761">
        <ele>42.44</ele>
        <time>2012-05-28T12:04:21Z</time>
      </trkpt>
      <trkpt lat="43.38464" lon="6.6762">
        <ele>45.8</ele>
        <time>2012-05-28T12:04:41Z</time>
      </trkpt>
      <trkpt lat="43.38415" lon="6.67607">
        <ele>48.68</ele>
        <time>2012-05-28T12:04:58Z</time>
      </trkpt>
      <trkpt lat="43.38345" lon="6.6759">
        <ele>51.57</ele>
        <time>2012-05-28T12:05:23Z</time>
      </trkpt>
      <trkpt lat="43.3827" lon="6.67596">
        <ele>52.05</ele>
        <time>2012-05-28T12:05:40Z</time>
      </trkpt>
      <trkpt lat="43.3818" lon="6.67557">
        <ele>52.05</ele>
        <time>2012-05-28T12:06:01Z</time>
      </trkpt>
      <trkpt lat="43.38087" lon="6.67501">
        <ele>55.41</ele>
        <time>2012-05-28T12:06:27Z</time>
      </trkpt>
      <trkpt lat="43.38007" lon="6.67455">
        <ele>56.37</ele>
        <time>2012-05-28T12:06:51Z</time>
      </trkpt>
      <trkpt lat="43.37921" lon="6.67451">
        <ele>58.78</ele>
        <time>2012-05-28T12:07:13Z</time>
      </trkpt>
      <trkpt lat="43.37785" lon="6.6749">
        <ele>60.7</ele>
        <time>2012-05-28T12:07:47Z</time>
      </trkpt>
      <trkpt lat="43.37687" lon="6.67468">
        <ele>63.58</ele>
        <time>2012-05-28T12:08:12Z</time>
      </trkpt>
      <trkpt lat="43.37635" lon="6.67441">
        <ele>66.47</ele>
        <time>2012-05-28T12:08:26Z</time>
      </trkpt>
      <trkpt lat="43.37552" lon="6.67399">
        <ele>69.83</ele>
        <time>2012-05-28T12:08:49Z</time>
      </trkpt>
      <trkpt lat="43.37463" lon="6.67363">
        <ele>72.72</ele>
        <time>2012-05-28T12:09:12Z</time>
      </trkpt>
      <trkpt lat="43.37335" lon="6.67318">
        <ele>75.6</ele>
        <time>2012-05-28T12:09:45Z</time>
      </trkpt>
      <trkpt lat="43.37259" lon="6.67323">
        <ele>78</ele>
        <time>2012-05-28T12:10:07Z</time>
      </trkpt>
      <trkpt lat="43.37208" lon="6.67316">
        <ele>81.37</ele>
        <time>2012-05-28T12:10:27Z</time>
      </trkpt>
      <trkpt lat="43.37169" lon="6.67306">
        <ele>84.25</ele>
        <time>2012-05-28T12:10:46Z</time>
      </trkpt>
      <trkpt lat="43.37116" lon="6.67306">
        <ele>87.62</ele>
        <time>2012-05-28T12:11:12Z</time>
      </trkpt>
      <trkpt lat="43.37073" lon="6.673">
        <ele>90.98</ele>
        <time>2012-05-28T12:11:34Z</time>
      </trkpt>
      <trkpt lat="43.37027" lon="6.6729">
        <ele>93.87</ele>
        <time>2012-05-28T12:11:59Z</time>
      </trkpt>
      <trkpt lat="43.3699" lon="6.67254">
        <ele>96.75</ele>
        <time>2012-05-28T12:12:22Z</time>
      </trkpt>
      <trkpt lat="43.36948" lon="6.67227">
        <ele>100.11</ele>
        <time>2012-05-28T12:12:47Z</time>
      </trkpt>
      <trkpt lat="43.36904" lon="6.67237">
        <ele>102.52</ele>
        <time>2012-05-28T12:13:09Z</time>
      </trkpt>
      <trkpt lat="43.36854" lon="6.67266">
        <ele>105.4</ele>
        <time>2012-05-28T12:13:37Z</time>
      </trkpt>
      <trkpt lat="43.36814" lon="6.67311">
        <ele>107.81</ele>
        <time>2012-05-28T12:14:04Z</time>
      </trkpt>
      <trkpt lat="43.36786" lon="6.67372">
        <ele>110.69</ele>
        <time>2012-05-28T12:14:31Z</time>
      </trkpt>
      <trkpt lat="43.36769" lon="6.67434">
        <ele>112.61</ele>
        <time>2012-05-28T12:14:52Z</time>
      </trkpt>
      <trkpt lat="43.3678" lon="6.67509">
        <ele>113.57</ele>
        <time>2012-05-28T12:15:11Z</time>
      </trkpt>
      <trkpt lat="43.36782" lon="6.67574">
        <ele>116.46</ele>
        <time>2012-05-28T12:15:30Z</time>
      </trkpt>
      <trkpt lat="43.36772" lon="6.67621">
        <ele>119.34</ele>
        <time>2012-05-28T12:15:50Z</time>
      </trkpt>
      <trkpt lat="43.36759" lon="6.67669">
        <ele>122.22</ele>
        <time>2012-05-28T12:16:11Z</time>
      </trkpt>
      <trkpt lat="43.36751" lon="6.67694">
        <ele>123.67</ele>
        <time>2012-05-28T12:16:24Z</time>
      </trkpt>
      <trkpt lat="43.36748" lon="6.67699">
        <ele>123.19</ele>
        <time>2012-05-28T12:16:46Z</time>
      </trkpt>
      <trkpt lat="43.36747" lon="6.67701">
        <ele>123.67</ele>
        <time>2012-05-28T12:17:07Z</time>
      </trkpt>
      <trkpt lat="43.36746" lon="6.67702">
        <ele>123.67</ele>
        <time>2012-05-28T12:17:52Z</time>
      </trkpt>
      <trkpt lat="43.36745" lon="6.67705">
        <ele>123.19</ele>
        <time>2012-05-28T12:18:23Z</time>
      </trkpt>
      <trkpt lat="43.36744" lon="6.67707">
        <ele>123.67</ele>
        <time>2012-05-28T12:18:40Z</time>
      </trkpt>
      <trkpt lat="43.36745" lon="6.67707">
        <ele>123.67</ele>
        <time>2012-05-28T12:19:24Z</time>
      </trkpt>
      <trkpt lat="43.36746" lon="6.67702">
        <ele>123.19</ele>
        <time>2012-05-28T12:19:50Z</time>
      </trkpt>
      <trkpt lat="43.36746" lon="6.67703">
        <ele>123.19</ele>
        <time>2012-05-28T12:20:14Z</time>
      </trkpt>
      <trkpt lat="43.36747" lon="6.67703">
        <ele>123.19</ele>
        <time>2012-05-28T12:20:34Z</time>
      </trkpt>
      <trkpt lat="43.3675" lon="6.67719">
        <ele>124.63</ele>
        <time>2012-05-28T12:20:48Z</time>
      </trkpt>
      <trkpt lat="43.36751" lon="6.67727">
        <ele>124.63</ele>
        <time>2012-05-28T12:20:53Z</time>
      </trkpt>
      <trkpt lat="43.36756" lon="6.67755">
        <ele>127.51</ele>
        <time>2012-05-28T12:21:10Z</time>
      </trkpt>
      <trkpt lat="43.36762" lon="6.67781">
        <ele>130.88</ele>
        <time>2012-05-28T12:21:25Z</time>
      </trkpt>
      <trkpt lat="43.36766" lon="6.67804">
        <ele>134.24</ele>
        <time>2012-05-28T12:21:39Z</time>
      </trkpt>
      <trkpt lat="43.36768" lon="6.67825">
        <ele>136.64</ele>
        <time>2012-05-28T12:21:56Z</time>
      </trkpt>
      <trkpt lat="43.36768" lon="6.67847">
        <ele>140.01</ele>
        <time>2012-05-28T12:22:12Z</time>
      </trkpt>
      <trkpt lat="43.36764" lon="6.67866">
        <ele>142.89</ele>
        <time>2012-05-28T12:22:28Z</time>
      </trkpt>
      <trkpt lat="43.36765" lon="6.67886">
        <ele>146.26</ele>
        <time>2012-05-28T12:22:45Z</time>
      </trkpt>
      <trkpt lat="43.36766" lon="6.67906">
        <ele>149.14</ele>
        <time>2012-05-28T12:23:04Z</time>
      </trkpt>
      <trkpt lat="43.3677" lon="6.67929">
        <ele>152.51</ele>
        <time>2012-05-28T12:23:25Z</time>
      </trkpt>
      <trkpt lat="43.36765" lon="6.67954">
        <ele>154.43</ele>
        <time>2012-05-28T12:23:48Z</time>
      </trkpt>
      <trkpt lat="43.36764" lon="6.67961">
        <ele>154.43</ele>
        <time>2012-05-28T12:24:05Z</time>
      </trkpt>
      <trkpt lat="43.36761" lon="6.67971">
        <ele>154.43</ele>
        <time>2012-05-28T12:24:27Z</time>
      </trkpt>
      <trkpt lat="43.36755" lon="6.67988">
        <ele>154.91</ele>
        <time>2012-05-28T12:24:44Z</time>
      </trkpt>
      <trkpt lat="43.36741" lon="6.67998">
        <ele>154.91</ele>
        <time>2012-05-28T12:24:55Z</time>
      </trkpt>
      <trkpt lat="43.36703" lon="6.68012">
        <ele>155.87</ele>
        <time>2012-05-28T12:25:10Z</time>
      </trkpt>
      <trkpt lat="43.36701" lon="6.6806">
        <ele>156.35</ele>
        <time>2012-05-28T12:25:23Z</time>
      </trkpt>
      <trkpt lat="43.36725" lon="6.68117">
        <ele>158.27</ele>
        <time>2012-05-28T12:25:40Z</time>
      </trkpt>
      <trkpt lat="43.36713" lon="6.68176">
        <ele>158.27</ele>
        <time>2012-05-28T12:25:53Z</time>
      </trkpt>
      <trkpt lat="43.36668" lon="6.6823">
        <ele>157.79</ele>
        <time>2012-05-28T12:26:07Z</time>
      </trkpt>
      <trkpt lat="43.36645" lon="6.68246">
        <ele>158.27</ele>
        <time>2012-05-28T12:26:14Z</time>
      </trkpt>
      <trkpt lat="43.36639" lon="6.68253">
        <ele>157.79</ele>
        <time>2012-05-28T12:26:19Z</time>
      </trkpt>
      <trkpt lat="43.36645" lon="6.68252">
        <ele>157.79</ele>
        <time>2012-05-28T12:26:25Z</time>
      </trkpt>
      <trkpt lat="43.36591" lon="6.68215">
        <ele>156.83</ele>
        <time>2012-05-28T12:26:44Z</time>
      </trkpt>
      <trkpt lat="43.36543" lon="6.68167">
        <ele>157.31</ele>
        <time>2012-05-28T12:27:00Z</time>
      </trkpt>
      <trkpt lat="43.3651" lon="6.68134">
        <ele>157.31</ele>
        <time>2012-05-28T12:27:12Z</time>
      </trkpt>
      <trkpt lat="43.36473" lon="6.68122">
        <ele>157.31</ele>
        <time>2012-05-28T12:27:21Z</time>
      </trkpt>
      <trkpt lat="43.36443" lon="6.68133">
        <ele>157.31</ele>
        <time>2012-05-28T12:27:29Z</time>
      </trkpt>
      <trkpt lat="43.36442" lon="6.68139">
        <ele>157.31</ele>
        <time>2012-05-28T12:27:30Z</time>
      </trkpt>
      <trkpt lat="43.3645" lon="6.68252">
        <ele>157.79</ele>
        <time>2012-05-28T12:27:49Z</time>
      </trkpt>
      <trkpt lat="43.36451" lon="6.68268">
        <ele>157.79</ele>
        <time>2012-05-28T12:27:51Z</time>
      </trkpt>
      <trkpt lat="43.36428" lon="6.68329">
        <ele>156.83</ele>
        <time>2012-05-28T12:28:01Z</time>
      </trkpt>
      <trkpt lat="43.36373" lon="6.68355">
        <ele>156.83</ele>
        <time>2012-05-28T12:28:13Z</time>
      </trkpt>
      <trkpt lat="43.36353" lon="6.68377">
        <ele>156.35</ele>
        <time>2012-05-28T12:28:19Z</time>
      </trkpt>
      <trkpt lat="43.36342" lon="6.6842">
        <ele>155.39</ele>
        <time>2012-05-28T12:28:32Z</time>
      </trkpt>
      <trkpt lat="43.36363" lon="6.68443">
        <ele>153.47</ele>
        <time>2012-05-28T12:28:43Z</time>
      </trkpt>
      <trkpt lat="43.36389" lon="6.68462">
        <ele>151.06</ele>
        <time>2012-05-28T12:28:49Z</time>
      </trkpt>
      <trkpt lat="43.36411" lon="6.68481">
        <ele>149.14</ele>
        <time>2012-05-28T12:28:53Z</time>
      </trkpt>
      <trkpt lat="43.36416" lon="6.68487">
        <ele>148.66</ele>
        <time>2012-05-28T12:28:54Z</time>
      </trkpt>
      <trkpt lat="43.36436" lon="6.68492">
        <ele>147.22</ele>
        <time>2012-05-28T12:28:58Z</time>
      </trkpt>
      <trkpt lat="43.36472" lon="6.68494">
        <ele>145.3</ele>
        <time>2012-05-28T12:29:03Z</time>
      </trkpt>
      <trkpt lat="43.3648" lon="6.68496">
        <ele>144.34</ele>
        <time>2012-05-28T12:29:04Z</time>
      </trkpt>
      <trkpt lat="43.36516" lon="6.6853">
        <ele>140.01</ele>
        <time>2012-05-28T12:29:10Z</time>
      </trkpt>
      <trkpt lat="43.3652" lon="6.6854">
        <ele>139.53</ele>
        <time>2012-05-28T12:29:11Z</time>
      </trkpt>
      <trkpt lat="43.36537" lon="6.68594">
        <ele>137.13</ele>
        <time>2012-05-28T12:29:16Z</time>
      </trkpt>
      <trkpt lat="43.36578" lon="6.68667">
        <ele>132.8</ele>
        <time>2012-05-28T12:29:25Z</time>
      </trkpt>
      <trkpt lat="43.36596" lon="6.6872">
        <ele>129.43</ele>
        <time>2012-05-28T12:29:30Z</time>
      </trkpt>
      <trkpt lat="43.36609" lon="6.68762">
        <ele>127.03</ele>
        <time>2012-05-28T12:29:34Z</time>
      </trkpt>
      <trkpt lat="43.36619" lon="6.68804">
        <ele>124.63</ele>
        <time>2012-05-28T12:29:38Z</time>
      </trkpt>
      <trkpt lat="43.36609" lon="6.68861">
        <ele>121.26</ele>
        <time>2012-05-28T12:29:44Z</time>
      </trkpt>
      <trkpt lat="43.36602" lon="6.68867">
        <ele>120.3</ele>
        <time>2012-05-28T12:29:45Z</time>
      </trkpt>
      <trkpt lat="43.36587" lon="6.68875">
        <ele>118.86</ele>
        <time>2012-05-28T12:29:47Z</time>
      </trkpt>
      <trkpt lat="43.36571" lon="6.68909">
        <ele>115.5</ele>
        <time>2012-05-28T12:29:52Z</time>
      </trkpt>
      <trkpt lat="43.36556" lon="6.68941">
        <ele>114.05</ele>
        <time>2012-05-28T12:29:56Z</time>
      </trkpt>
      <trkpt lat="43.36535" lon="6.68958">
        <ele>112.13</ele>
        <time>2012-05-28T12:29:59Z</time>
      </trkpt>
      <trkpt lat="43.365" lon="6.68971">
        <ele>108.29</ele>
        <time>2012-05-28T12:30:04Z</time>
      </trkpt>
      <trkpt lat="43.36492" lon="6.68969">
        <ele>108.29</ele>
        <time>2012-05-28T12:30:05Z</time>
      </trkpt>
      <trkpt lat="43.36472" lon="6.6896">
        <ele>106.36</ele>
        <time>2012-05-28T12:30:08Z</time>
      </trkpt>
      <trkpt lat="43.36455" lon="6.68987">
        <ele>103.48</ele>
        <time>2012-05-28T12:30:14Z</time>
      </trkpt>
      <trkpt lat="43.36456" lon="6.69006">
        <ele>102.04</ele>
        <time>2012-05-28T12:30:16Z</time>
      </trkpt>
      <trkpt lat="43.36442" lon="6.69043">
        <ele>99.63</ele>
        <time>2012-05-28T12:30:21Z</time>
      </trkpt>
      <trkpt lat="43.3645" lon="6.69073">
        <ele>97.71</ele>
        <time>2012-05-28T12:30:26Z</time>
      </trkpt>
      <trkpt lat="43.36465" lon="6.69101">
        <ele>93.87</ele>
        <time>2012-05-28T12:30:32Z</time>
      </trkpt>
      <trkpt lat="43.36474" lon="6.69096">
        <ele>93.39</ele>
        <time>2012-05-28T12:30:34Z</time>
      </trkpt>
      <trkpt lat="43.36518" lon="6.69076">
        <ele>90.02</ele>
        <time>2012-05-28T12:30:41Z</time>
      </trkpt>
      <trkpt lat="43.36531" lon="6.69071">
        <ele>88.58</ele>
        <time>2012-05-28T12:30:43Z</time>
      </trkpt>
      <trkpt lat="43.36547" lon="6.69072">
        <ele>88.1</ele>
        <time>2012-05-28T12:30:45Z</time>
      </trkpt>
      <trkpt lat="43.36571" lon="6.69082">
        <ele>85.69</ele>
        <time>2012-05-28T12:30:48Z</time>
      </trkpt>
      <trkpt lat="43.36616" lon="6.69134">
        <ele>80.41</ele>
        <time>2012-05-28T12:30:55Z</time>
      </trkpt>
      <trkpt lat="43.36619" lon="6.69145">
        <ele>80.41</ele>
        <time>2012-05-28T12:30:56Z</time>
      </trkpt>
      <trkpt lat="43.36625" lon="6.69179">
        <ele>78.97</ele>
        <time>2012-05-28T12:30:59Z</time>
      </trkpt>
      <trkpt lat="43.36626" lon="6.69213">
        <ele>76.56</ele>
        <time>2012-05-28T12:31:02Z</time>
      </trkpt>
      <trkpt lat="43.3664" lon="6.69256">
        <ele>74.16</ele>
        <time>2012-05-28T12:31:06Z</time>
      </trkpt>
      <trkpt lat="43.3666" lon="6.69294">
        <ele>70.31</ele>
        <time>2012-05-28T12:31:10Z</time>
      </trkpt>
      <trkpt lat="43.3667" lon="6.69311">
        <ele>68.39</ele>
        <time>2012-05-28T12:31:12Z</time>
      </trkpt>
      <trkpt lat="43.36685" lon="6.69348">
        <ele>65.99</ele>
        <time>2012-05-28T12:31:16Z</time>
      </trkpt>
      <trkpt lat="43.36695" lon="6.69381">
        <ele>63.1</ele>
        <time>2012-05-28T12:31:22Z</time>
      </trkpt>
      <trkpt lat="43.36703" lon="6.69382">
        <ele>62.14</ele>
        <time>2012-05-28T12:31:24Z</time>
      </trkpt>
      <trkpt lat="43.36748" lon="6.69404">
        <ele>58.3</ele>
        <time>2012-05-28T12:31:32Z</time>
      </trkpt>
      <trkpt lat="43.36768" lon="6.69435">
        <ele>56.37</ele>
        <time>2012-05-28T12:31:36Z</time>
      </trkpt>
      <trkpt lat="43.36783" lon="6.69458">
        <ele>53.97</ele>
        <time>2012-05-28T12:31:41Z</time>
      </trkpt>
      <trkpt lat="43.36815" lon="6.69461">
        <ele>51.57</ele>
        <time>2012-05-28T12:31:46Z</time>
      </trkpt>
      <trkpt lat="43.36821" lon="6.69462">
        <ele>50.61</ele>
        <time>2012-05-28T12:31:47Z</time>
      </trkpt>
      <trkpt lat="43.36838" lon="6.6948">
        <ele>48.68</ele>
        <time>2012-05-28T12:31:51Z</time>
      </trkpt>
      <trkpt lat="43.36861" lon="6.69558">
        <ele>44.84</ele>
        <time>2012-05-28T12:31:59Z</time>
      </trkpt>
      <trkpt lat="43.36871" lon="6.69587">
        <ele>42.92</ele>
        <time>2012-05-28T12:32:02Z</time>
      </trkpt>
      <trkpt lat="43.36881" lon="6.69631">
        <ele>40.51</ele>
        <time>2012-05-28T12:32:06Z</time>
      </trkpt>
      <trkpt lat="43.36884" lon="6.69691">
        <ele>36.67</ele>
        <time>2012-05-28T12:32:11Z</time>
      </trkpt>
      <trkpt lat="43.3688" lon="6.6974">
        <ele>33.78</ele>
        <time>2012-05-28T12:32:15Z</time>
      </trkpt>
      <trkpt lat="43.36877" lon="6.69766">
        <ele>32.82</ele>
        <time>2012-05-28T12:32:17Z</time>
      </trkpt>
      <trkpt lat="43.36878" lon="6.69847">
        <ele>28.5</ele>
        <time>2012-05-28T12:32:24Z</time>
      </trkpt>
      <trkpt lat="43.36881" lon="6.69869">
        <ele>27.53</ele>
        <time>2012-05-28T12:32:27Z</time>
      </trkpt>
      <trkpt lat="43.36892" lon="6.69945">
        <ele>25.61</ele>
        <time>2012-05-28T12:32:43Z</time>
      </trkpt>
      <trkpt lat="43.36893" lon="6.69986">
        <ele>26.09</ele>
        <time>2012-05-28T12:32:52Z</time>
      </trkpt>
      <trkpt lat="43.36885" lon="6.70062">
        <ele>22.25</ele>
        <time>2012-05-28T12:33:02Z</time>
      </trkpt>
      <trkpt lat="43.36883" lon="6.70079">
        <ele>21.29</ele>
        <time>2012-05-28T12:33:04Z</time>
      </trkpt>
      <trkpt lat="43.36875" lon="6.70102">
        <ele>19.84</ele>
        <time>2012-05-28T12:33:07Z</time>
      </trkpt>
      <trkpt lat="43.36852" lon="6.70134">
        <ele>18.4</ele>
        <time>2012-05-28T12:33:13Z</time>
      </trkpt>
      <trkpt lat="43.3684" lon="6.70167">
        <ele>17.92</ele>
        <time>2012-05-28T12:33:24Z</time>
      </trkpt>
      <trkpt lat="43.36841" lon="6.7017">
        <ele>17.44</ele>
        <time>2012-05-28T12:33:27Z</time>
      </trkpt>
      <trkpt lat="43.36835" lon="6.70191">
        <ele>17.44</ele>
        <time>2012-05-28T12:33:40Z</time>
      </trkpt>
      <trkpt lat="43.36828" lon="6.70253">
        <ele>16.48</ele>
        <time>2012-05-28T12:33:52Z</time>
      </trkpt>
      <trkpt lat="43.36829" lon="6.70265">
        <ele>16.48</ele>
        <time>2012-05-28T12:33:54Z</time>
      </trkpt>
      <trkpt lat="43.36824" lon="6.70292">
        <ele>16</ele>
        <time>2012-05-28T12:33:59Z</time>
      </trkpt>
      <trkpt lat="43.36801" lon="6.70403">
        <ele>14.08</ele>
        <time>2012-05-28T12:34:17Z</time>
      </trkpt>
      <trkpt lat="43.36789" lon="6.70515">
        <ele>13.6</ele>
        <time>2012-05-28T12:34:33Z</time>
      </trkpt>
      <trkpt lat="43.36796" lon="6.70545">
        <ele>13.6</ele>
        <time>2012-05-28T12:34:38Z</time>
      </trkpt>
      <trkpt lat="43.36835" lon="6.70581">
        <ele>14.08</ele>
        <time>2012-05-28T12:34:48Z</time>
      </trkpt>
      <trkpt lat="43.36855" lon="6.70648">
        <ele>13.6</ele>
        <time>2012-05-28T12:34:59Z</time>
      </trkpt>
      <trkpt lat="43.36852" lon="6.70732">
        <ele>12.63</ele>
        <time>2012-05-28T12:35:11Z</time>
      </trkpt>
      <trkpt lat="43.36848" lon="6.70767">
        <ele>13.12</ele>
        <time>2012-05-28T12:35:17Z</time>
      </trkpt>
      <trkpt lat="43.36832" lon="6.70806">
        <ele>11.67</ele>
        <time>2012-05-28T12:35:23Z</time>
      </trkpt>
      <trkpt lat="43.36804" lon="6.70845">
        <ele>10.23</ele>
        <time>2012-05-28T12:35:30Z</time>
      </trkpt>
      <trkpt lat="43.36791" lon="6.70882">
        <ele>10.23</ele>
        <time>2012-05-28T12:35:36Z</time>
      </trkpt>
      <trkpt lat="43.36793" lon="6.70984">
        <ele>10.23</ele>
        <time>2012-05-28T12:35:52Z</time>
      </trkpt>
      <trkpt lat="43.36794" lon="6.7099">
        <ele>10.23</ele>
        <time>2012-05-28T12:35:53Z</time>
      </trkpt>
      <trkpt lat="43.36792" lon="6.71015">
        <ele>10.23</ele>
        <time>2012-05-28T12:35:57Z</time>
      </trkpt>
      <trkpt lat="43.36773" lon="6.71075">
        <ele>9.75</ele>
        <time>2012-05-28T12:36:07Z</time>
      </trkpt>
      <trkpt lat="43.36784" lon="6.7117">
        <ele>10.23</ele>
        <time>2012-05-28T12:36:22Z</time>
      </trkpt>
      <trkpt lat="43.36796" lon="6.71247">
        <ele>12.15</ele>
        <time>2012-05-28T12:36:37Z</time>
      </trkpt>
      <trkpt lat="43.36793" lon="6.71256">
        <ele>12.63</ele>
        <time>2012-05-28T12:36:44Z</time>
      </trkpt>
      <trkpt lat="43.36795" lon="6.71271">
        <ele>12.63</ele>
        <time>2012-05-28T12:36:48Z</time>
      </trkpt>
      <trkpt lat="43.36834" lon="6.71327">
        <ele>14.08</ele>
        <time>2012-05-28T12:37:06Z</time>
      </trkpt>
      <trkpt lat="43.369" lon="6.71391">
        <ele>15.04</ele>
        <time>2012-05-28T12:37:25Z</time>
      </trkpt>
      <trkpt lat="43.36969" lon="6.7139">
        <ele>14.08</ele>
        <time>2012-05-28T12:37:38Z</time>
      </trkpt>
      <trkpt lat="43.37036" lon="6.71351">
        <ele>12.15</ele>
        <time>2012-05-28T12:37:49Z</time>
      </trkpt>
      <trkpt lat="43.37081" lon="6.71357">
        <ele>12.15</ele>
        <time>2012-05-28T12:37:56Z</time>
      </trkpt>
      <trkpt lat="43.37169" lon="6.71386">
        <ele>13.6</ele>
        <time>2012-05-28T12:38:11Z</time>
      </trkpt>
      <trkpt lat="43.37231" lon="6.71354">
        <ele>13.12</ele>
        <time>2012-05-28T12:38:22Z</time>
      </trkpt>
      <trkpt lat="43.37284" lon="6.71375">
        <ele>12.63</ele>
        <time>2012-05-28T12:38:30Z</time>
      </trkpt>
      <trkpt lat="43.37291" lon="6.71439">
        <ele>14.56</ele>
        <time>2012-05-28T12:38:37Z</time>
      </trkpt>
      <trkpt lat="43.37289" lon="6.71447">
        <ele>14.08</ele>
        <time>2012-05-28T12:38:38Z</time>
      </trkpt>
      <trkpt lat="43.37277" lon="6.71486">
        <ele>15.04</ele>
        <time>2012-05-28T12:38:43Z</time>
      </trkpt>
      <trkpt lat="43.37289" lon="6.71585">
        <ele>16.96</ele>
        <time>2012-05-28T12:38:56Z</time>
      </trkpt>
      <trkpt lat="43.37358" lon="6.71694">
        <ele>16.48</ele>
        <time>2012-05-28T12:39:12Z</time>
      </trkpt>
      <trkpt lat="43.37443" lon="6.718">
        <ele>15.04</ele>
        <time>2012-05-28T12:39:27Z</time>
      </trkpt>
      <trkpt lat="43.37453" lon="6.71816">
        <ele>14.56</ele>
        <time>2012-05-28T12:39:29Z</time>
      </trkpt>
      <trkpt lat="43.37503" lon="6.71848">
        <ele>13.6</ele>
        <time>2012-05-28T12:39:36Z</time>
      </trkpt>
      <trkpt lat="43.37538" lon="6.7185">
        <ele>12.63</ele>
        <time>2012-05-28T12:39:40Z</time>
      </trkpt>
      <trkpt lat="43.37592" lon="6.71914">
        <ele>12.15</ele>
        <time>2012-05-28T12:39:48Z</time>
      </trkpt>
      <trkpt lat="43.37597" lon="6.71926">
        <ele>12.63</ele>
        <time>2012-05-28T12:39:49Z</time>
      </trkpt>
      <trkpt lat="43.37623" lon="6.72018">
        <ele>13.12</ele>
        <time>2012-05-28T12:39:57Z</time>
      </trkpt>
      <trkpt lat="43.3767" lon="6.72058">
        <ele>13.6</ele>
        <time>2012-05-28T12:40:05Z</time>
      </trkpt>
      <trkpt lat="43.37684" lon="6.72055">
        <ele>14.08</ele>
        <time>2012-05-28T12:40:07Z</time>
      </trkpt>
      <trkpt lat="43.37697" lon="6.72049">
        <ele>14.08</ele>
        <time>2012-05-28T12:40:09Z</time>
      </trkpt>
      <trkpt lat="43.37783" lon="6.7199">
        <ele>14.08</ele>
        <time>2012-05-28T12:40:21Z</time>
      </trkpt>
      <trkpt lat="43.3781" lon="6.71973">
        <ele>13.6</ele>
        <time>2012-05-28T12:40:24Z</time>
      </trkpt>
      <trkpt lat="43.37867" lon="6.71984">
        <ele>12.15</ele>
        <time>2012-05-28T12:40:30Z</time>
      </trkpt>
      <trkpt lat="43.37981" lon="6.72093">
        <ele>12.63</ele>
        <time>2012-05-28T12:40:46Z</time>
      </trkpt>
      <trkpt lat="43.38104" lon="6.72178">
        <ele>14.08</ele>
        <time>2012-05-28T12:41:06Z</time>
      </trkpt>
      <trkpt lat="43.38225" lon="6.72232">
        <ele>14.56</ele>
        <time>2012-05-28T12:41:26Z</time>
      </trkpt>
      <trkpt lat="43.38324" lon="6.72242">
        <ele>15.04</ele>
        <time>2012-05-28T12:41:41Z</time>
      </trkpt>
      <trkpt lat="43.38428" lon="6.72236">
        <ele>16.96</ele>
        <time>2012-05-28T12:41:57Z</time>
      </trkpt>
      <trkpt lat="43.38461" lon="6.72229">
        <ele>17.44</ele>
        <time>2012-05-28T12:42:05Z</time>
      </trkpt>
      <trkpt lat="43.38443" lon="6.72226">
        <ele>17.92</ele>
        <time>2012-05-28T12:42:10Z</time>
      </trkpt>
      <trkpt lat="43.38453" lon="6.72246">
        <ele>17.92</ele>
        <time>2012-05-28T12:42:14Z</time>
      </trkpt>
      <trkpt lat="43.38465" lon="6.72247">
        <ele>17.92</ele>
        <time>2012-05-28T12:42:16Z</time>
      </trkpt>
      <trkpt lat="43.38601" lon="6.72305">
        <ele>18.4</ele>
        <time>2012-05-28T12:42:37Z</time>
      </trkpt>
      <trkpt lat="43.38712" lon="6.72381">
        <ele>21.77</ele>
        <time>2012-05-28T12:42:55Z</time>
      </trkpt>
      <trkpt lat="43.38775" lon="6.72419">
        <ele>25.13</ele>
        <time>2012-05-28T12:43:07Z</time>
      </trkpt>
      <trkpt lat="43.38888" lon="6.72497">
        <ele>27.05</ele>
        <time>2012-05-28T12:43:31Z</time>
      </trkpt>
      <trkpt lat="43.38903" lon="6.7251">
        <ele>26.57</ele>
        <time>2012-05-28T12:43:34Z</time>
      </trkpt>
      <trkpt lat="43.3893" lon="6.7254">
        <ele>25.61</ele>
        <time>2012-05-28T12:43:45Z</time>
      </trkpt>
      <trkpt lat="43.38933" lon="6.72544">
        <ele>25.61</ele>
        <time>2012-05-28T12:43:47Z</time>
      </trkpt>
      <trkpt lat="43.38937" lon="6.72522">
        <ele>25.13</ele>
        <time>2012-05-28T12:43:55Z</time>
      </trkpt>
      <trkpt lat="43.38936" lon="6.7254">
        <ele>25.13</ele>
        <time>2012-05-28T12:44:02Z</time>
      </trkpt>
      <trkpt lat="43.38946" lon="6.72542">
        <ele>25.13</ele>
        <time>2012-05-28T12:44:04Z</time>
      </trkpt>
      <trkpt lat="43.39031" lon="6.72595">
        <ele>21.77</ele>
        <time>2012-05-28T12:44:17Z</time>
      </trkpt>
      <trkpt lat="43.39094" lon="6.72639">
        <ele>19.36</ele>
        <time>2012-05-28T12:44:25Z</time>
      </trkpt>
      <trkpt lat="43.39132" lon="6.72698">
        <ele>16.96</ele>
        <time>2012-05-28T12:44:31Z</time>
      </trkpt>
      <trkpt lat="43.39152" lon="6.72774">
        <ele>13.6</ele>
        <time>2012-05-28T12:44:38Z</time>
      </trkpt>
      <trkpt lat="43.39156" lon="6.72798">
        <ele>13.12</ele>
        <time>2012-05-28T12:44:42Z</time>
      </trkpt>
      <trkpt lat="43.39167" lon="6.72807">
        <ele>12.63</ele>
        <time>2012-05-28T12:44:46Z</time>
      </trkpt>
      <trkpt lat="43.39204" lon="6.72812">
        <ele>11.67</ele>
        <time>2012-05-28T12:44:52Z</time>
      </trkpt>
      <trkpt lat="43.39324" lon="6.72825">
        <ele>11.67</ele>
        <time>2012-05-28T12:45:06Z</time>
      </trkpt>
      <trkpt lat="43.3946" lon="6.72843">
        <ele>9.75</ele>
        <time>2012-05-28T12:45:26Z</time>
      </trkpt>
      <trkpt lat="43.39496" lon="6.72851">
        <ele>9.27</ele>
        <time>2012-05-28T12:45:33Z</time>
      </trkpt>
      <trkpt lat="43.395" lon="6.72856">
        <ele>8.79</ele>
        <time>2012-05-28T12:45:36Z</time>
      </trkpt>
      <trkpt lat="43.39505" lon="6.72858">
        <ele>8.31</ele>
        <time>2012-05-28T12:45:40Z</time>
      </trkpt>
      <trkpt lat="43.39561" lon="6.72868">
        <ele>7.83</ele>
        <time>2012-05-28T12:45:57Z</time>
      </trkpt>
      <trkpt lat="43.39646" lon="6.72899">
        <ele>8.31</ele>
        <time>2012-05-28T12:46:20Z</time>
      </trkpt>
      <trkpt lat="43.39692" lon="6.72918">
        <ele>7.83</ele>
        <time>2012-05-28T12:46:37Z</time>
      </trkpt>
      <trkpt lat="43.3971" lon="6.72921">
        <ele>7.35</ele>
        <time>2012-05-28T12:46:52Z</time>
      </trkpt>
      <trkpt lat="43.39737" lon="6.72931">
        <ele>7.35</ele>
        <time>2012-05-28T12:47:12Z</time>
      </trkpt>
      <trkpt lat="43.39761" lon="6.7294">
        <ele>6.87</ele>
        <time>2012-05-28T12:47:32Z</time>
      </trkpt>
      <trkpt lat="43.39772" lon="6.72946">
        <ele>6.87</ele>
        <time>2012-05-28T12:47:41Z</time>
      </trkpt>
      <trkpt lat="43.39778" lon="6.7295">
        <ele>7.35</ele>
        <time>2012-05-28T12:48:00Z</time>
      </trkpt>
    </trkseg>
  </trk>
</gpx>